<?xml version="1.0" encoding="UTF-8" standalone="no" ?>
<gpx xmlns="http://www.topografix.com/GPX/1/1" xmlns:xsi="http://www.w3.org/2001/XMLSchema-instance" xsi:schemaLocation="http://www.topografix.com/GPX/1/1 http://www.topografix.com/GPX/1/1/gpx.xsd" version="1.1" creator="VisuGPX - https://www.visugpx.com">
  <metadata>
    <name>Eaunes foret  10.5km BaseVOK</name>
  </metadata>
  <trk>
    <name><![CDATA[Randonnée du 17/12/2019 à 14:04]]></name>
    <trkseg>
      <trkpt lat="43.42061" lon="1.3537">
        <ele>210.1</ele>
        <time>2019-12-17T20:03:09Z</time>
      </trkpt>
      <trkpt lat="43.42052" lon="1.35364">
        <ele>209.7</ele>
        <time>2019-12-17T20:03:18Z</time>
      </trkpt>
      <trkpt lat="43.42043" lon="1.35358">
        <ele>209.2</ele>
        <time>2019-12-17T20:03:26Z</time>
      </trkpt>
      <trkpt lat="43.42035" lon="1.35352">
        <ele>208.6</ele>
        <time>2019-12-17T20:03:34Z</time>
      </trkpt>
      <trkpt lat="43.42024" lon="1.3535">
        <ele>207.9</ele>
        <time>2019-12-17T20:03:43Z</time>
      </trkpt>
      <trkpt lat="43.42015" lon="1.35345">
        <ele>206.9</ele>
        <time>2019-12-17T20:03:51Z</time>
      </trkpt>
      <trkpt lat="43.42007" lon="1.35339">
        <ele>205.6</ele>
        <time>2019-12-17T20:03:59Z</time>
      </trkpt>
      <trkpt lat="43.41998" lon="1.35332">
        <ele>204.2</ele>
        <time>2019-12-17T20:04:07Z</time>
      </trkpt>
      <trkpt lat="43.4199" lon="1.35324">
        <ele>204.9</ele>
        <time>2019-12-17T20:04:16Z</time>
      </trkpt>
      <trkpt lat="43.41981" lon="1.35318">
        <ele>205.3</ele>
        <time>2019-12-17T20:04:24Z</time>
      </trkpt>
      <trkpt lat="43.41972" lon="1.35314">
        <ele>205.7</ele>
        <time>2019-12-17T20:04:32Z</time>
      </trkpt>
      <trkpt lat="43.41963" lon="1.35308">
        <ele>205.9</ele>
        <time>2019-12-17T20:04:40Z</time>
      </trkpt>
      <trkpt lat="43.41955" lon="1.35303">
        <ele>206.2</ele>
        <time>2019-12-17T20:04:47Z</time>
      </trkpt>
      <trkpt lat="43.41946" lon="1.353">
        <ele>206.4</ele>
        <time>2019-12-17T20:04:55Z</time>
      </trkpt>
      <trkpt lat="43.41937" lon="1.35295">
        <ele>206.5</ele>
        <time>2019-12-17T20:05:03Z</time>
      </trkpt>
      <trkpt lat="43.41926" lon="1.35291">
        <ele>206.6</ele>
        <time>2019-12-17T20:05:13Z</time>
      </trkpt>
      <trkpt lat="43.41918" lon="1.35283">
        <ele>206.6</ele>
        <time>2019-12-17T20:05:21Z</time>
      </trkpt>
      <trkpt lat="43.41909" lon="1.35278">
        <ele>208.4</ele>
        <time>2019-12-17T20:05:29Z</time>
      </trkpt>
      <trkpt lat="43.41901" lon="1.35273">
        <ele>208.4</ele>
        <time>2019-12-17T20:05:37Z</time>
      </trkpt>
      <trkpt lat="43.41893" lon="1.35266">
        <ele>208.5</ele>
        <time>2019-12-17T20:05:44Z</time>
      </trkpt>
      <trkpt lat="43.41885" lon="1.35258">
        <ele>208.7</ele>
        <time>2019-12-17T20:05:53Z</time>
      </trkpt>
      <trkpt lat="43.41878" lon="1.35248">
        <ele>209.7</ele>
        <time>2019-12-17T20:06:01Z</time>
      </trkpt>
      <trkpt lat="43.41871" lon="1.35239">
        <ele>210</ele>
        <time>2019-12-17T20:06:09Z</time>
      </trkpt>
      <trkpt lat="43.41862" lon="1.35233">
        <ele>210.4</ele>
        <time>2019-12-17T20:06:18Z</time>
      </trkpt>
      <trkpt lat="43.41857" lon="1.3522">
        <ele>210.7</ele>
        <time>2019-12-17T20:06:26Z</time>
      </trkpt>
      <trkpt lat="43.41849" lon="1.35211">
        <ele>211.1</ele>
        <time>2019-12-17T20:06:34Z</time>
      </trkpt>
      <trkpt lat="43.41842" lon="1.35202">
        <ele>211.6</ele>
        <time>2019-12-17T20:06:42Z</time>
      </trkpt>
      <trkpt lat="43.41835" lon="1.35194">
        <ele>212.3</ele>
        <time>2019-12-17T20:06:50Z</time>
      </trkpt>
      <trkpt lat="43.41829" lon="1.35183">
        <ele>215.5</ele>
        <time>2019-12-17T20:06:59Z</time>
      </trkpt>
      <trkpt lat="43.41829" lon="1.3517">
        <ele>215.8</ele>
        <time>2019-12-17T20:07:07Z</time>
      </trkpt>
      <trkpt lat="43.41829" lon="1.35157">
        <ele>216.7</ele>
        <time>2019-12-17T20:07:14Z</time>
      </trkpt>
      <trkpt lat="43.41825" lon="1.35144">
        <ele>217.2</ele>
        <time>2019-12-17T20:07:23Z</time>
      </trkpt>
      <trkpt lat="43.41828" lon="1.3513">
        <ele>217.4</ele>
        <time>2019-12-17T20:07:31Z</time>
      </trkpt>
      <trkpt lat="43.41834" lon="1.35119">
        <ele>214.1</ele>
        <time>2019-12-17T20:07:40Z</time>
      </trkpt>
      <trkpt lat="43.4184" lon="1.35107">
        <ele>214.4</ele>
        <time>2019-12-17T20:07:49Z</time>
      </trkpt>
      <trkpt lat="43.4184" lon="1.35093">
        <ele>215.4</ele>
        <time>2019-12-17T20:07:57Z</time>
      </trkpt>
      <trkpt lat="43.41838" lon="1.35079">
        <ele>216.7</ele>
        <time>2019-12-17T20:08:06Z</time>
      </trkpt>
      <trkpt lat="43.41839" lon="1.35065">
        <ele>216.5</ele>
        <time>2019-12-17T20:08:14Z</time>
      </trkpt>
      <trkpt lat="43.41841" lon="1.35053">
        <ele>216.6</ele>
        <time>2019-12-17T20:08:22Z</time>
      </trkpt>
      <trkpt lat="43.41843" lon="1.3504">
        <ele>216.9</ele>
        <time>2019-12-17T20:08:30Z</time>
      </trkpt>
      <trkpt lat="43.41843" lon="1.35025">
        <ele>217.6</ele>
        <time>2019-12-17T20:08:39Z</time>
      </trkpt>
      <trkpt lat="43.4184" lon="1.35012">
        <ele>218.8</ele>
        <time>2019-12-17T20:08:47Z</time>
      </trkpt>
      <trkpt lat="43.41839" lon="1.34999">
        <ele>221</ele>
        <time>2019-12-17T20:08:55Z</time>
      </trkpt>
      <trkpt lat="43.41836" lon="1.34987">
        <ele>221.2</ele>
        <time>2019-12-17T20:09:03Z</time>
      </trkpt>
      <trkpt lat="43.41836" lon="1.34974">
        <ele>221.6</ele>
        <time>2019-12-17T20:09:11Z</time>
      </trkpt>
      <trkpt lat="43.41829" lon="1.34965">
        <ele>225.3</ele>
        <time>2019-12-17T20:09:19Z</time>
      </trkpt>
      <trkpt lat="43.41822" lon="1.34955">
        <ele>226.1</ele>
        <time>2019-12-17T20:09:27Z</time>
      </trkpt>
      <trkpt lat="43.41815" lon="1.34945">
        <ele>226.7</ele>
        <time>2019-12-17T20:09:36Z</time>
      </trkpt>
      <trkpt lat="43.41807" lon="1.34933">
        <ele>227.3</ele>
        <time>2019-12-17T20:09:45Z</time>
      </trkpt>
      <trkpt lat="43.41799" lon="1.34928">
        <ele>227.5</ele>
        <time>2019-12-17T20:09:53Z</time>
      </trkpt>
      <trkpt lat="43.41792" lon="1.34917">
        <ele>227.8</ele>
        <time>2019-12-17T20:10:02Z</time>
      </trkpt>
      <trkpt lat="43.4179" lon="1.34905">
        <ele>234</ele>
        <time>2019-12-17T20:10:09Z</time>
      </trkpt>
      <trkpt lat="43.41785" lon="1.34893">
        <ele>234.6</ele>
        <time>2019-12-17T20:10:18Z</time>
      </trkpt>
      <trkpt lat="43.41779" lon="1.34881">
        <ele>235.4</ele>
        <time>2019-12-17T20:10:26Z</time>
      </trkpt>
      <trkpt lat="43.41773" lon="1.34873">
        <ele>236.2</ele>
        <time>2019-12-17T20:10:34Z</time>
      </trkpt>
      <trkpt lat="43.41766" lon="1.34863">
        <ele>237.4</ele>
        <time>2019-12-17T20:10:42Z</time>
      </trkpt>
      <trkpt lat="43.41758" lon="1.34854">
        <ele>238.8</ele>
        <time>2019-12-17T20:10:50Z</time>
      </trkpt>
      <trkpt lat="43.41753" lon="1.34844">
        <ele>240.9</ele>
        <time>2019-12-17T20:10:58Z</time>
      </trkpt>
      <trkpt lat="43.41749" lon="1.34833">
        <ele>244.4</ele>
        <time>2019-12-17T20:11:05Z</time>
      </trkpt>
      <trkpt lat="43.41742" lon="1.34823">
        <ele>247</ele>
        <time>2019-12-17T20:11:13Z</time>
      </trkpt>
      <trkpt lat="43.41736" lon="1.34814">
        <ele>248.7</ele>
        <time>2019-12-17T20:11:21Z</time>
      </trkpt>
      <trkpt lat="43.41716" lon="1.34785">
        <ele>251.6</ele>
        <time>2019-12-17T20:11:45Z</time>
      </trkpt>
      <trkpt lat="43.41702" lon="1.34764">
        <ele>253.4</ele>
        <time>2019-12-17T20:12:03Z</time>
      </trkpt>
      <trkpt lat="43.41699" lon="1.34752">
        <ele>254.1</ele>
        <time>2019-12-17T20:12:10Z</time>
      </trkpt>
      <trkpt lat="43.41694" lon="1.34739">
        <ele>258.3</ele>
        <time>2019-12-17T20:12:19Z</time>
      </trkpt>
      <trkpt lat="43.41688" lon="1.34728">
        <ele>258.5</ele>
        <time>2019-12-17T20:12:28Z</time>
      </trkpt>
      <trkpt lat="43.41685" lon="1.34716">
        <ele>258.7</ele>
        <time>2019-12-17T20:12:35Z</time>
      </trkpt>
      <trkpt lat="43.41674" lon="1.34705">
        <ele>259.1</ele>
        <time>2019-12-17T20:12:46Z</time>
      </trkpt>
      <trkpt lat="43.41662" lon="1.34689">
        <ele>264.4</ele>
        <time>2019-12-17T20:13:00Z</time>
      </trkpt>
      <trkpt lat="43.41608" lon="1.34609">
        <ele>268.5</ele>
        <time>2019-12-17T20:14:06Z</time>
      </trkpt>
      <trkpt lat="43.41626" lon="1.3458">
        <ele>266.7</ele>
        <time>2019-12-17T20:14:29Z</time>
      </trkpt>
      <trkpt lat="43.4164" lon="1.34559">
        <ele>265.7</ele>
        <time>2019-12-17T20:14:47Z</time>
      </trkpt>
      <trkpt lat="43.41656" lon="1.34525">
        <ele>264.9</ele>
        <time>2019-12-17T20:15:11Z</time>
      </trkpt>
      <trkpt lat="43.41664" lon="1.34511">
        <ele>264</ele>
        <time>2019-12-17T20:15:22Z</time>
      </trkpt>
      <trkpt lat="43.41672" lon="1.34493">
        <ele>260.4</ele>
        <time>2019-12-17T20:15:35Z</time>
      </trkpt>
      <trkpt lat="43.41691" lon="1.3448">
        <ele>256.9</ele>
        <time>2019-12-17T20:15:52Z</time>
      </trkpt>
      <trkpt lat="43.41697" lon="1.3444">
        <ele>255</ele>
        <time>2019-12-17T20:16:17Z</time>
      </trkpt>
      <trkpt lat="43.41699" lon="1.34419">
        <ele>254.7</ele>
        <time>2019-12-17T20:16:30Z</time>
      </trkpt>
      <trkpt lat="43.41701" lon="1.34374">
        <ele>248.8</ele>
        <time>2019-12-17T20:16:57Z</time>
      </trkpt>
      <trkpt lat="43.41701" lon="1.34361">
        <ele>248.3</ele>
        <time>2019-12-17T20:17:05Z</time>
      </trkpt>
      <trkpt lat="43.41703" lon="1.34342">
        <ele>247.5</ele>
        <time>2019-12-17T20:17:17Z</time>
      </trkpt>
      <trkpt lat="43.41703" lon="1.34311">
        <ele>241.2</ele>
        <time>2019-12-17T20:17:35Z</time>
      </trkpt>
      <trkpt lat="43.41702" lon="1.34299">
        <ele>240.6</ele>
        <time>2019-12-17T20:17:43Z</time>
      </trkpt>
      <trkpt lat="43.417" lon="1.34286">
        <ele>240</ele>
        <time>2019-12-17T20:17:51Z</time>
      </trkpt>
      <trkpt lat="43.41699" lon="1.34274">
        <ele>239.4</ele>
        <time>2019-12-17T20:17:59Z</time>
      </trkpt>
      <trkpt lat="43.417" lon="1.34261">
        <ele>239</ele>
        <time>2019-12-17T20:18:07Z</time>
      </trkpt>
      <trkpt lat="43.41698" lon="1.34247">
        <ele>234.5</ele>
        <time>2019-12-17T20:18:15Z</time>
      </trkpt>
      <trkpt lat="43.41696" lon="1.34234">
        <ele>234.3</ele>
        <time>2019-12-17T20:18:23Z</time>
      </trkpt>
      <trkpt lat="43.41692" lon="1.34222">
        <ele>234.1</ele>
        <time>2019-12-17T20:18:31Z</time>
      </trkpt>
      <trkpt lat="43.41683" lon="1.34217">
        <ele>234.3</ele>
        <time>2019-12-17T20:18:39Z</time>
      </trkpt>
      <trkpt lat="43.41663" lon="1.34197">
        <ele>238.5</ele>
        <time>2019-12-17T20:19:00Z</time>
      </trkpt>
      <trkpt lat="43.41641" lon="1.34193">
        <ele>239.3</ele>
        <time>2019-12-17T20:19:18Z</time>
      </trkpt>
      <trkpt lat="43.41645" lon="1.34172">
        <ele>237.8</ele>
        <time>2019-12-17T20:19:32Z</time>
      </trkpt>
      <trkpt lat="43.4165" lon="1.34135">
        <ele>234</ele>
        <time>2019-12-17T20:19:54Z</time>
      </trkpt>
      <trkpt lat="43.41657" lon="1.34126">
        <ele>233.3</ele>
        <time>2019-12-17T20:20:02Z</time>
      </trkpt>
      <trkpt lat="43.41657" lon="1.34113">
        <ele>232.2</ele>
        <time>2019-12-17T20:20:10Z</time>
      </trkpt>
      <trkpt lat="43.4165" lon="1.34104">
        <ele>231.8</ele>
        <time>2019-12-17T20:20:18Z</time>
      </trkpt>
      <trkpt lat="43.41642" lon="1.34097">
        <ele>232.1</ele>
        <time>2019-12-17T20:20:26Z</time>
      </trkpt>
      <trkpt lat="43.41615" lon="1.34061">
        <ele>232.1</ele>
        <time>2019-12-17T20:20:58Z</time>
      </trkpt>
      <trkpt lat="43.41568" lon="1.34012">
        <ele>237.2</ele>
        <time>2019-12-17T20:21:47Z</time>
      </trkpt>
      <trkpt lat="43.41562" lon="1.34003">
        <ele>237.6</ele>
        <time>2019-12-17T20:21:55Z</time>
      </trkpt>
      <trkpt lat="43.41555" lon="1.33995">
        <ele>235.2</ele>
        <time>2019-12-17T20:22:02Z</time>
      </trkpt>
      <trkpt lat="43.4155" lon="1.33985">
        <ele>235.6</ele>
        <time>2019-12-17T20:22:10Z</time>
      </trkpt>
      <trkpt lat="43.41543" lon="1.33974">
        <ele>236</ele>
        <time>2019-12-17T20:22:18Z</time>
      </trkpt>
      <trkpt lat="43.41538" lon="1.33964">
        <ele>236</ele>
        <time>2019-12-17T20:22:26Z</time>
      </trkpt>
      <trkpt lat="43.41532" lon="1.33953">
        <ele>235.9</ele>
        <time>2019-12-17T20:22:34Z</time>
      </trkpt>
      <trkpt lat="43.41528" lon="1.3394">
        <ele>235.8</ele>
        <time>2019-12-17T20:22:43Z</time>
      </trkpt>
      <trkpt lat="43.41521" lon="1.3393">
        <ele>235.9</ele>
        <time>2019-12-17T20:22:51Z</time>
      </trkpt>
      <trkpt lat="43.41519" lon="1.33918">
        <ele>236</ele>
        <time>2019-12-17T20:22:59Z</time>
      </trkpt>
      <trkpt lat="43.41513" lon="1.33907">
        <ele>234.9</ele>
        <time>2019-12-17T20:23:07Z</time>
      </trkpt>
      <trkpt lat="43.41507" lon="1.33896">
        <ele>234.6</ele>
        <time>2019-12-17T20:23:15Z</time>
      </trkpt>
      <trkpt lat="43.41503" lon="1.33885">
        <ele>234.1</ele>
        <time>2019-12-17T20:23:23Z</time>
      </trkpt>
      <trkpt lat="43.41498" lon="1.33875">
        <ele>238</ele>
        <time>2019-12-17T20:23:30Z</time>
      </trkpt>
      <trkpt lat="43.41491" lon="1.33863">
        <ele>237.6</ele>
        <time>2019-12-17T20:23:39Z</time>
      </trkpt>
      <trkpt lat="43.41484" lon="1.33854">
        <ele>237.3</ele>
        <time>2019-12-17T20:23:47Z</time>
      </trkpt>
      <trkpt lat="43.41479" lon="1.33843">
        <ele>237.1</ele>
        <time>2019-12-17T20:23:55Z</time>
      </trkpt>
      <trkpt lat="43.41462" lon="1.33828">
        <ele>235.9</ele>
        <time>2019-12-17T20:24:12Z</time>
      </trkpt>
      <trkpt lat="43.41422" lon="1.33792">
        <ele>236.8</ele>
        <time>2019-12-17T20:24:51Z</time>
      </trkpt>
      <trkpt lat="43.41402" lon="1.33781">
        <ele>242</ele>
        <time>2019-12-17T20:25:09Z</time>
      </trkpt>
      <trkpt lat="43.41393" lon="1.33775">
        <ele>242.2</ele>
        <time>2019-12-17T20:25:18Z</time>
      </trkpt>
      <trkpt lat="43.4138" lon="1.33768">
        <ele>243</ele>
        <time>2019-12-17T20:25:30Z</time>
      </trkpt>
      <trkpt lat="43.41372" lon="1.33753">
        <ele>243.6</ele>
        <time>2019-12-17T20:25:41Z</time>
      </trkpt>
      <trkpt lat="43.41351" lon="1.3373">
        <ele>242.5</ele>
        <time>2019-12-17T20:26:03Z</time>
      </trkpt>
      <trkpt lat="43.4134" lon="1.33725">
        <ele>242.8</ele>
        <time>2019-12-17T20:26:13Z</time>
      </trkpt>
      <trkpt lat="43.41331" lon="1.3372">
        <ele>246.8</ele>
        <time>2019-12-17T20:26:21Z</time>
      </trkpt>
      <trkpt lat="43.41329" lon="1.33709">
        <ele>246.3</ele>
        <time>2019-12-17T20:26:27Z</time>
      </trkpt>
      <trkpt lat="43.41328" lon="1.33703">
        <ele>246</ele>
        <time>2019-12-17T20:26:31Z</time>
      </trkpt>
      <trkpt lat="43.4132" lon="1.33684">
        <ele>244.9</ele>
        <time>2019-12-17T20:26:45Z</time>
      </trkpt>
      <trkpt lat="43.41312" lon="1.33676">
        <ele>245.1</ele>
        <time>2019-12-17T20:26:53Z</time>
      </trkpt>
      <trkpt lat="43.41303" lon="1.33673">
        <ele>245.6</ele>
        <time>2019-12-17T20:27:01Z</time>
      </trkpt>
      <trkpt lat="43.41294" lon="1.33677">
        <ele>246.1</ele>
        <time>2019-12-17T20:27:08Z</time>
      </trkpt>
      <trkpt lat="43.41287" lon="1.33668">
        <ele>246.3</ele>
        <time>2019-12-17T20:27:16Z</time>
      </trkpt>
      <trkpt lat="43.41282" lon="1.33657">
        <ele>244.1</ele>
        <time>2019-12-17T20:27:24Z</time>
      </trkpt>
      <trkpt lat="43.41278" lon="1.33645">
        <ele>244</ele>
        <time>2019-12-17T20:27:32Z</time>
      </trkpt>
      <trkpt lat="43.41266" lon="1.3362">
        <ele>243.4</ele>
        <time>2019-12-17T20:27:50Z</time>
      </trkpt>
      <trkpt lat="43.4125" lon="1.33606">
        <ele>244.9</ele>
        <time>2019-12-17T20:28:06Z</time>
      </trkpt>
      <trkpt lat="43.41195" lon="1.33579">
        <ele>244</ele>
        <time>2019-12-17T20:28:55Z</time>
      </trkpt>
      <trkpt lat="43.41187" lon="1.33572">
        <ele>244.3</ele>
        <time>2019-12-17T20:29:03Z</time>
      </trkpt>
      <trkpt lat="43.4118" lon="1.33565">
        <ele>244.3</ele>
        <time>2019-12-17T20:29:10Z</time>
      </trkpt>
      <trkpt lat="43.41173" lon="1.33555">
        <ele>243.6</ele>
        <time>2019-12-17T20:29:18Z</time>
      </trkpt>
      <trkpt lat="43.41167" lon="1.33545">
        <ele>242.8</ele>
        <time>2019-12-17T20:29:26Z</time>
      </trkpt>
      <trkpt lat="43.41159" lon="1.33538">
        <ele>245.9</ele>
        <time>2019-12-17T20:29:35Z</time>
      </trkpt>
      <trkpt lat="43.41155" lon="1.33526">
        <ele>244.8</ele>
        <time>2019-12-17T20:29:42Z</time>
      </trkpt>
      <trkpt lat="43.41149" lon="1.33517">
        <ele>244.3</ele>
        <time>2019-12-17T20:29:50Z</time>
      </trkpt>
      <trkpt lat="43.41143" lon="1.33506">
        <ele>244.1</ele>
        <time>2019-12-17T20:29:58Z</time>
      </trkpt>
      <trkpt lat="43.41135" lon="1.33501">
        <ele>245.1</ele>
        <time>2019-12-17T20:30:05Z</time>
      </trkpt>
      <trkpt lat="43.41126" lon="1.335">
        <ele>241.4</ele>
        <time>2019-12-17T20:30:13Z</time>
      </trkpt>
      <trkpt lat="43.41117" lon="1.33494">
        <ele>242.1</ele>
        <time>2019-12-17T20:30:21Z</time>
      </trkpt>
      <trkpt lat="43.41107" lon="1.33496">
        <ele>243.2</ele>
        <time>2019-12-17T20:30:29Z</time>
      </trkpt>
      <trkpt lat="43.41075" lon="1.33519">
        <ele>251.9</ele>
        <time>2019-12-17T20:30:59Z</time>
      </trkpt>
      <trkpt lat="43.41076" lon="1.33535">
        <ele>253.6</ele>
        <time>2019-12-17T20:31:09Z</time>
      </trkpt>
      <trkpt lat="43.41091" lon="1.33559">
        <ele>251.6</ele>
        <time>2019-12-17T20:31:28Z</time>
      </trkpt>
      <trkpt lat="43.41099" lon="1.33576">
        <ele>253.1</ele>
        <time>2019-12-17T20:31:40Z</time>
      </trkpt>
      <trkpt lat="43.41103" lon="1.33608">
        <ele>255.8</ele>
        <time>2019-12-17T20:32:00Z</time>
      </trkpt>
      <trkpt lat="43.41064" lon="1.33609">
        <ele>261.2</ele>
        <time>2019-12-17T20:32:32Z</time>
      </trkpt>
      <trkpt lat="43.41046" lon="1.33598">
        <ele>261.5</ele>
        <time>2019-12-17T20:32:49Z</time>
      </trkpt>
      <trkpt lat="43.41037" lon="1.33594">
        <ele>261.6</ele>
        <time>2019-12-17T20:32:57Z</time>
      </trkpt>
      <trkpt lat="43.41028" lon="1.33595">
        <ele>261.8</ele>
        <time>2019-12-17T20:33:04Z</time>
      </trkpt>
      <trkpt lat="43.4102" lon="1.33603">
        <ele>262.1</ele>
        <time>2019-12-17T20:33:13Z</time>
      </trkpt>
      <trkpt lat="43.41019" lon="1.33617">
        <ele>262.7</ele>
        <time>2019-12-17T20:33:21Z</time>
      </trkpt>
      <trkpt lat="43.4101" lon="1.3362">
        <ele>263</ele>
        <time>2019-12-17T20:33:28Z</time>
      </trkpt>
      <trkpt lat="43.41001" lon="1.33614">
        <ele>262.8</ele>
        <time>2019-12-17T20:33:36Z</time>
      </trkpt>
      <trkpt lat="43.40973" lon="1.33627">
        <ele>267.2</ele>
        <time>2019-12-17T20:34:01Z</time>
      </trkpt>
      <trkpt lat="43.40955" lon="1.33572">
        <ele>260.3</ele>
        <time>2019-12-17T20:34:37Z</time>
      </trkpt>
      <trkpt lat="43.40933" lon="1.33552">
        <ele>260</ele>
        <time>2019-12-17T20:34:59Z</time>
      </trkpt>
      <trkpt lat="43.40924" lon="1.33549">
        <ele>260</ele>
        <time>2019-12-17T20:35:07Z</time>
      </trkpt>
      <trkpt lat="43.40914" lon="1.3355">
        <ele>264.6</ele>
        <time>2019-12-17T20:35:15Z</time>
      </trkpt>
      <trkpt lat="43.40904" lon="1.33553">
        <ele>264.9</ele>
        <time>2019-12-17T20:35:24Z</time>
      </trkpt>
      <trkpt lat="43.40895" lon="1.33552">
        <ele>265.3</ele>
        <time>2019-12-17T20:35:32Z</time>
      </trkpt>
      <trkpt lat="43.40885" lon="1.33557">
        <ele>265.8</ele>
        <time>2019-12-17T20:35:40Z</time>
      </trkpt>
      <trkpt lat="43.40797" lon="1.33572">
        <ele>273.5</ele>
        <time>2019-12-17T20:36:54Z</time>
      </trkpt>
      <trkpt lat="43.40768" lon="1.33582">
        <ele>275.3</ele>
        <time>2019-12-17T20:37:19Z</time>
      </trkpt>
      <trkpt lat="43.40743" lon="1.33593">
        <ele>278.9</ele>
        <time>2019-12-17T20:37:41Z</time>
      </trkpt>
      <trkpt lat="43.40717" lon="1.33608">
        <ele>281.1</ele>
        <time>2019-12-17T20:38:04Z</time>
      </trkpt>
      <trkpt lat="43.40697" lon="1.33642">
        <ele>281.3</ele>
        <time>2019-12-17T20:38:31Z</time>
      </trkpt>
      <trkpt lat="43.40694" lon="1.33654">
        <ele>281.1</ele>
        <time>2019-12-17T20:38:39Z</time>
      </trkpt>
      <trkpt lat="43.40702" lon="1.33663">
        <ele>281.3</ele>
        <time>2019-12-17T20:38:48Z</time>
      </trkpt>
      <trkpt lat="43.40707" lon="1.33673">
        <ele>281.1</ele>
        <time>2019-12-17T20:38:55Z</time>
      </trkpt>
      <trkpt lat="43.40714" lon="1.33683">
        <ele>281.4</ele>
        <time>2019-12-17T20:39:03Z</time>
      </trkpt>
      <trkpt lat="43.4072" lon="1.33693">
        <ele>281.6</ele>
        <time>2019-12-17T20:39:11Z</time>
      </trkpt>
      <trkpt lat="43.40722" lon="1.33707">
        <ele>281.6</ele>
        <time>2019-12-17T20:39:20Z</time>
      </trkpt>
      <trkpt lat="43.40729" lon="1.33717">
        <ele>282</ele>
        <time>2019-12-17T20:39:28Z</time>
      </trkpt>
      <trkpt lat="43.40745" lon="1.33758">
        <ele>284.1</ele>
        <time>2019-12-17T20:39:57Z</time>
      </trkpt>
      <trkpt lat="43.40768" lon="1.3379">
        <ele>286.7</ele>
        <time>2019-12-17T20:40:24Z</time>
      </trkpt>
      <trkpt lat="43.40786" lon="1.33811">
        <ele>287.1</ele>
        <time>2019-12-17T20:40:44Z</time>
      </trkpt>
      <trkpt lat="43.40811" lon="1.33841">
        <ele>288.8</ele>
        <time>2019-12-17T20:41:12Z</time>
      </trkpt>
      <trkpt lat="43.40799" lon="1.33889">
        <ele>288.4</ele>
        <time>2019-12-17T20:41:42Z</time>
      </trkpt>
      <trkpt lat="43.40795" lon="1.33913">
        <ele>288.3</ele>
        <time>2019-12-17T20:41:57Z</time>
      </trkpt>
      <trkpt lat="43.4079" lon="1.33937">
        <ele>287.5</ele>
        <time>2019-12-17T20:42:12Z</time>
      </trkpt>
      <trkpt lat="43.40789" lon="1.33952">
        <ele>287.4</ele>
        <time>2019-12-17T20:42:22Z</time>
      </trkpt>
      <trkpt lat="43.4078" lon="1.34">
        <ele>286.2</ele>
        <time>2019-12-17T20:42:52Z</time>
      </trkpt>
      <trkpt lat="43.40768" lon="1.34003">
        <ele>284.2</ele>
        <time>2019-12-17T20:43:01Z</time>
      </trkpt>
      <trkpt lat="43.40755" lon="1.33999">
        <ele>283.1</ele>
        <time>2019-12-17T20:43:12Z</time>
      </trkpt>
      <trkpt lat="43.40743" lon="1.34002">
        <ele>279.9</ele>
        <time>2019-12-17T20:43:23Z</time>
      </trkpt>
      <trkpt lat="43.40734" lon="1.34001">
        <ele>277.8</ele>
        <time>2019-12-17T20:43:31Z</time>
      </trkpt>
      <trkpt lat="43.40724" lon="1.34004">
        <ele>276.2</ele>
        <time>2019-12-17T20:43:39Z</time>
      </trkpt>
      <trkpt lat="43.40714" lon="1.34005">
        <ele>274.7</ele>
        <time>2019-12-17T20:43:47Z</time>
      </trkpt>
      <trkpt lat="43.40703" lon="1.34007">
        <ele>273.4</ele>
        <time>2019-12-17T20:43:56Z</time>
      </trkpt>
      <trkpt lat="43.40694" lon="1.3401">
        <ele>272.3</ele>
        <time>2019-12-17T20:44:04Z</time>
      </trkpt>
      <trkpt lat="43.40685" lon="1.34012">
        <ele>271.3</ele>
        <time>2019-12-17T20:44:12Z</time>
      </trkpt>
      <trkpt lat="43.40676" lon="1.34013">
        <ele>270.5</ele>
        <time>2019-12-17T20:44:19Z</time>
      </trkpt>
      <trkpt lat="43.40666" lon="1.34013">
        <ele>264.8</ele>
        <time>2019-12-17T20:44:27Z</time>
      </trkpt>
      <trkpt lat="43.40657" lon="1.34014">
        <ele>264</ele>
        <time>2019-12-17T20:44:35Z</time>
      </trkpt>
      <trkpt lat="43.40647" lon="1.34016">
        <ele>262.7</ele>
        <time>2019-12-17T20:44:43Z</time>
      </trkpt>
      <trkpt lat="43.40638" lon="1.34018">
        <ele>261.6</ele>
        <time>2019-12-17T20:44:51Z</time>
      </trkpt>
      <trkpt lat="43.40627" lon="1.34019">
        <ele>260.5</ele>
        <time>2019-12-17T20:45:00Z</time>
      </trkpt>
      <trkpt lat="43.40617" lon="1.34018">
        <ele>259.6</ele>
        <time>2019-12-17T20:45:09Z</time>
      </trkpt>
      <trkpt lat="43.40607" lon="1.34019">
        <ele>258.8</ele>
        <time>2019-12-17T20:45:17Z</time>
      </trkpt>
      <trkpt lat="43.40597" lon="1.34017">
        <ele>258.1</ele>
        <time>2019-12-17T20:45:25Z</time>
      </trkpt>
      <trkpt lat="43.40591" lon="1.34008">
        <ele>257.3</ele>
        <time>2019-12-17T20:45:33Z</time>
      </trkpt>
      <trkpt lat="43.40581" lon="1.33995">
        <ele>256.5</ele>
        <time>2019-12-17T20:45:44Z</time>
      </trkpt>
      <trkpt lat="43.40561" lon="1.33995">
        <ele>257.3</ele>
        <time>2019-12-17T20:46:01Z</time>
      </trkpt>
      <trkpt lat="43.40554" lon="1.33967">
        <ele>258.1</ele>
        <time>2019-12-17T20:46:19Z</time>
      </trkpt>
      <trkpt lat="43.40547" lon="1.33948">
        <ele>258.5</ele>
        <time>2019-12-17T20:46:32Z</time>
      </trkpt>
      <trkpt lat="43.40544" lon="1.33907">
        <ele>261.7</ele>
        <time>2019-12-17T20:46:57Z</time>
      </trkpt>
      <trkpt lat="43.40533" lon="1.33886">
        <ele>262.2</ele>
        <time>2019-12-17T20:47:13Z</time>
      </trkpt>
      <trkpt lat="43.40523" lon="1.33885">
        <ele>262.2</ele>
        <time>2019-12-17T20:47:21Z</time>
      </trkpt>
      <trkpt lat="43.40526" lon="1.33898">
        <ele>261.7</ele>
        <time>2019-12-17T20:47:29Z</time>
      </trkpt>
      <trkpt lat="43.40522" lon="1.33924">
        <ele>258.7</ele>
        <time>2019-12-17T20:47:45Z</time>
      </trkpt>
      <trkpt lat="43.40516" lon="1.33937">
        <ele>258.6</ele>
        <time>2019-12-17T20:47:54Z</time>
      </trkpt>
      <trkpt lat="43.40492" lon="1.33927">
        <ele>261</ele>
        <time>2019-12-17T20:48:16Z</time>
      </trkpt>
      <trkpt lat="43.40477" lon="1.33918">
        <ele>262.5</ele>
        <time>2019-12-17T20:48:29Z</time>
      </trkpt>
      <trkpt lat="43.40466" lon="1.33906">
        <ele>267.5</ele>
        <time>2019-12-17T20:48:41Z</time>
      </trkpt>
      <trkpt lat="43.40456" lon="1.33904">
        <ele>268.7</ele>
        <time>2019-12-17T20:48:49Z</time>
      </trkpt>
      <trkpt lat="43.40446" lon="1.33901">
        <ele>269.7</ele>
        <time>2019-12-17T20:48:57Z</time>
      </trkpt>
      <trkpt lat="43.40437" lon="1.33897">
        <ele>270.4</ele>
        <time>2019-12-17T20:49:05Z</time>
      </trkpt>
      <trkpt lat="43.40428" lon="1.33893">
        <ele>270.9</ele>
        <time>2019-12-17T20:49:13Z</time>
      </trkpt>
      <trkpt lat="43.4042" lon="1.33886">
        <ele>271.4</ele>
        <time>2019-12-17T20:49:21Z</time>
      </trkpt>
      <trkpt lat="43.40411" lon="1.33881">
        <ele>280.2</ele>
        <time>2019-12-17T20:49:29Z</time>
      </trkpt>
      <trkpt lat="43.40402" lon="1.33878">
        <ele>281</ele>
        <time>2019-12-17T20:49:37Z</time>
      </trkpt>
      <trkpt lat="43.40393" lon="1.33872">
        <ele>281.9</ele>
        <time>2019-12-17T20:49:45Z</time>
      </trkpt>
      <trkpt lat="43.40384" lon="1.33869">
        <ele>282.7</ele>
        <time>2019-12-17T20:49:53Z</time>
      </trkpt>
      <trkpt lat="43.40378" lon="1.33858">
        <ele>283.6</ele>
        <time>2019-12-17T20:50:02Z</time>
      </trkpt>
      <trkpt lat="43.40357" lon="1.33859">
        <ele>285.5</ele>
        <time>2019-12-17T20:50:19Z</time>
      </trkpt>
      <trkpt lat="43.40344" lon="1.33865">
        <ele>286.2</ele>
        <time>2019-12-17T20:50:30Z</time>
      </trkpt>
      <trkpt lat="43.40326" lon="1.33866">
        <ele>291.2</ele>
        <time>2019-12-17T20:50:46Z</time>
      </trkpt>
      <trkpt lat="43.40306" lon="1.33861">
        <ele>291.2</ele>
        <time>2019-12-17T20:51:03Z</time>
      </trkpt>
      <trkpt lat="43.40294" lon="1.33845">
        <ele>291.3</ele>
        <time>2019-12-17T20:51:17Z</time>
      </trkpt>
      <trkpt lat="43.40276" lon="1.33841">
        <ele>291.2</ele>
        <time>2019-12-17T20:51:31Z</time>
      </trkpt>
      <trkpt lat="43.40256" lon="1.33834">
        <ele>291.1</ele>
        <time>2019-12-17T20:51:49Z</time>
      </trkpt>
      <trkpt lat="43.40235" lon="1.33836">
        <ele>291.1</ele>
        <time>2019-12-17T20:52:06Z</time>
      </trkpt>
      <trkpt lat="43.4019" lon="1.33833">
        <ele>290.5</ele>
        <time>2019-12-17T20:52:44Z</time>
      </trkpt>
      <trkpt lat="43.4018" lon="1.33831">
        <ele>290.6</ele>
        <time>2019-12-17T20:52:53Z</time>
      </trkpt>
      <trkpt lat="43.40167" lon="1.33842">
        <ele>291.1</ele>
        <time>2019-12-17T20:53:05Z</time>
      </trkpt>
      <trkpt lat="43.40098" lon="1.33893">
        <ele>288.4</ele>
        <time>2019-12-17T20:54:11Z</time>
      </trkpt>
      <trkpt lat="43.40079" lon="1.33904">
        <ele>288.2</ele>
        <time>2019-12-17T20:54:27Z</time>
      </trkpt>
      <trkpt lat="43.4007" lon="1.33911">
        <ele>288.3</ele>
        <time>2019-12-17T20:54:36Z</time>
      </trkpt>
      <trkpt lat="43.40062" lon="1.33917">
        <ele>290.6</ele>
        <time>2019-12-17T20:54:43Z</time>
      </trkpt>
      <trkpt lat="43.40054" lon="1.33923">
        <ele>291.1</ele>
        <time>2019-12-17T20:54:51Z</time>
      </trkpt>
      <trkpt lat="43.40045" lon="1.33928">
        <ele>291.4</ele>
        <time>2019-12-17T20:54:59Z</time>
      </trkpt>
      <trkpt lat="43.40037" lon="1.33935">
        <ele>291.7</ele>
        <time>2019-12-17T20:55:07Z</time>
      </trkpt>
      <trkpt lat="43.40028" lon="1.33941">
        <ele>291.9</ele>
        <time>2019-12-17T20:55:15Z</time>
      </trkpt>
      <trkpt lat="43.4002" lon="1.33946">
        <ele>292</ele>
        <time>2019-12-17T20:55:23Z</time>
      </trkpt>
      <trkpt lat="43.40013" lon="1.33955">
        <ele>292.1</ele>
        <time>2019-12-17T20:55:31Z</time>
      </trkpt>
      <trkpt lat="43.40005" lon="1.3396">
        <ele>292.2</ele>
        <time>2019-12-17T20:55:38Z</time>
      </trkpt>
      <trkpt lat="43.39998" lon="1.33969">
        <ele>292.6</ele>
        <time>2019-12-17T20:55:46Z</time>
      </trkpt>
      <trkpt lat="43.3999" lon="1.33978">
        <ele>292.6</ele>
        <time>2019-12-17T20:55:55Z</time>
      </trkpt>
      <trkpt lat="43.39982" lon="1.33985">
        <ele>292.6</ele>
        <time>2019-12-17T20:56:03Z</time>
      </trkpt>
      <trkpt lat="43.39951" lon="1.33998">
        <ele>292.5</ele>
        <time>2019-12-17T20:56:30Z</time>
      </trkpt>
      <trkpt lat="43.39903" lon="1.34028">
        <ele>289.8</ele>
        <time>2019-12-17T20:57:13Z</time>
      </trkpt>
      <trkpt lat="43.3991" lon="1.34043">
        <ele>289.5</ele>
        <time>2019-12-17T20:57:24Z</time>
      </trkpt>
      <trkpt lat="43.39921" lon="1.34067">
        <ele>291</ele>
        <time>2019-12-17T20:57:41Z</time>
      </trkpt>
      <trkpt lat="43.39939" lon="1.3407">
        <ele>291.3</ele>
        <time>2019-12-17T20:57:57Z</time>
      </trkpt>
      <trkpt lat="43.39946" lon="1.34079">
        <ele>291.4</ele>
        <time>2019-12-17T20:58:04Z</time>
      </trkpt>
      <trkpt lat="43.39953" lon="1.3409">
        <ele>288.1</ele>
        <time>2019-12-17T20:58:13Z</time>
      </trkpt>
      <trkpt lat="43.39954" lon="1.34103">
        <ele>287.7</ele>
        <time>2019-12-17T20:58:21Z</time>
      </trkpt>
      <trkpt lat="43.39951" lon="1.34116">
        <ele>287.1</ele>
        <time>2019-12-17T20:58:29Z</time>
      </trkpt>
      <trkpt lat="43.39949" lon="1.34128">
        <ele>286.3</ele>
        <time>2019-12-17T20:58:37Z</time>
      </trkpt>
      <trkpt lat="43.39947" lon="1.3414">
        <ele>285.4</ele>
        <time>2019-12-17T20:58:45Z</time>
      </trkpt>
      <trkpt lat="43.39947" lon="1.34153">
        <ele>284.6</ele>
        <time>2019-12-17T20:58:52Z</time>
      </trkpt>
      <trkpt lat="43.39951" lon="1.34161">
        <ele>284.7</ele>
        <time>2019-12-17T20:58:59Z</time>
      </trkpt>
      <trkpt lat="43.39955" lon="1.34176">
        <ele>279.4</ele>
        <time>2019-12-17T20:59:08Z</time>
      </trkpt>
      <trkpt lat="43.39962" lon="1.34186">
        <ele>279.5</ele>
        <time>2019-12-17T20:59:17Z</time>
      </trkpt>
      <trkpt lat="43.39977" lon="1.34205">
        <ele>279.2</ele>
        <time>2019-12-17T20:59:34Z</time>
      </trkpt>
      <trkpt lat="43.39981" lon="1.34216">
        <ele>278.5</ele>
        <time>2019-12-17T20:59:41Z</time>
      </trkpt>
      <trkpt lat="43.39974" lon="1.34216">
        <ele>278.4</ele>
        <time>2019-12-17T20:59:46Z</time>
      </trkpt>
      <trkpt lat="43.39939" lon="1.34193">
        <ele>278.2</ele>
        <time>2019-12-17T21:00:19Z</time>
      </trkpt>
      <trkpt lat="43.39935" lon="1.34197">
        <ele>277.9</ele>
        <time>2019-12-17T21:00:23Z</time>
      </trkpt>
      <trkpt lat="43.39931" lon="1.34208">
        <ele>277.3</ele>
        <time>2019-12-17T21:00:30Z</time>
      </trkpt>
      <trkpt lat="43.39938" lon="1.34225">
        <ele>276.5</ele>
        <time>2019-12-17T21:00:42Z</time>
      </trkpt>
      <trkpt lat="43.39936" lon="1.34245">
        <ele>275.2</ele>
        <time>2019-12-17T21:00:54Z</time>
      </trkpt>
      <trkpt lat="43.3994" lon="1.34255">
        <ele>270.8</ele>
        <time>2019-12-17T21:01:01Z</time>
      </trkpt>
      <trkpt lat="43.39947" lon="1.34268">
        <ele>270.4</ele>
        <time>2019-12-17T21:01:11Z</time>
      </trkpt>
      <trkpt lat="43.39956" lon="1.34272">
        <ele>270.4</ele>
        <time>2019-12-17T21:01:18Z</time>
      </trkpt>
      <trkpt lat="43.39971" lon="1.34271">
        <ele>271.1</ele>
        <time>2019-12-17T21:01:31Z</time>
      </trkpt>
      <trkpt lat="43.39979" lon="1.34271">
        <ele>271.6</ele>
        <time>2019-12-17T21:01:38Z</time>
      </trkpt>
      <trkpt lat="43.39999" lon="1.34276">
        <ele>271.9</ele>
        <time>2019-12-17T21:01:55Z</time>
      </trkpt>
      <trkpt lat="43.40011" lon="1.34291">
        <ele>275.3</ele>
        <time>2019-12-17T21:02:08Z</time>
      </trkpt>
      <trkpt lat="43.40016" lon="1.34304">
        <ele>274.6</ele>
        <time>2019-12-17T21:02:17Z</time>
      </trkpt>
      <trkpt lat="43.40018" lon="1.34314">
        <ele>273.9</ele>
        <time>2019-12-17T21:02:23Z</time>
      </trkpt>
      <trkpt lat="43.39997" lon="1.34343">
        <ele>266.9</ele>
        <time>2019-12-17T21:02:48Z</time>
      </trkpt>
      <trkpt lat="43.39994" lon="1.34355">
        <ele>265.4</ele>
        <time>2019-12-17T21:02:55Z</time>
      </trkpt>
      <trkpt lat="43.39985" lon="1.34365">
        <ele>264.2</ele>
        <time>2019-12-17T21:03:05Z</time>
      </trkpt>
      <trkpt lat="43.39978" lon="1.34375">
        <ele>263.5</ele>
        <time>2019-12-17T21:03:14Z</time>
      </trkpt>
      <trkpt lat="43.39973" lon="1.34387">
        <ele>263</ele>
        <time>2019-12-17T21:03:22Z</time>
      </trkpt>
      <trkpt lat="43.39968" lon="1.34397">
        <ele>262.5</ele>
        <time>2019-12-17T21:03:30Z</time>
      </trkpt>
      <trkpt lat="43.39961" lon="1.34406">
        <ele>261.9</ele>
        <time>2019-12-17T21:03:37Z</time>
      </trkpt>
      <trkpt lat="43.39896" lon="1.34474">
        <ele>252.2</ele>
        <time>2019-12-17T21:04:46Z</time>
      </trkpt>
      <trkpt lat="43.39882" lon="1.34496">
        <ele>251.8</ele>
        <time>2019-12-17T21:05:03Z</time>
      </trkpt>
      <trkpt lat="43.39868" lon="1.34511">
        <ele>248.5</ele>
        <time>2019-12-17T21:05:18Z</time>
      </trkpt>
      <trkpt lat="43.3986" lon="1.34518">
        <ele>248.4</ele>
        <time>2019-12-17T21:05:26Z</time>
      </trkpt>
      <trkpt lat="43.39855" lon="1.34529">
        <ele>248.1</ele>
        <time>2019-12-17T21:05:34Z</time>
      </trkpt>
      <trkpt lat="43.39847" lon="1.34534">
        <ele>247.8</ele>
        <time>2019-12-17T21:05:41Z</time>
      </trkpt>
      <trkpt lat="43.39834" lon="1.34551">
        <ele>246.6</ele>
        <time>2019-12-17T21:05:56Z</time>
      </trkpt>
      <trkpt lat="43.39819" lon="1.34595">
        <ele>240.8</ele>
        <time>2019-12-17T21:06:25Z</time>
      </trkpt>
      <trkpt lat="43.39829" lon="1.34606">
        <ele>240.6</ele>
        <time>2019-12-17T21:06:36Z</time>
      </trkpt>
      <trkpt lat="43.39843" lon="1.34608">
        <ele>245.9</ele>
        <time>2019-12-17T21:06:47Z</time>
      </trkpt>
      <trkpt lat="43.39849" lon="1.3462">
        <ele>246.7</ele>
        <time>2019-12-17T21:06:56Z</time>
      </trkpt>
      <trkpt lat="43.39852" lon="1.3462">
        <ele>246.9</ele>
        <time>2019-12-17T21:06:59Z</time>
      </trkpt>
      <trkpt lat="43.39864" lon="1.34632">
        <ele>248</ele>
        <time>2019-12-17T21:07:11Z</time>
      </trkpt>
      <trkpt lat="43.39869" lon="1.34642">
        <ele>248.6</ele>
        <time>2019-12-17T21:07:19Z</time>
      </trkpt>
      <trkpt lat="43.39881" lon="1.34647">
        <ele>250</ele>
        <time>2019-12-17T21:07:29Z</time>
      </trkpt>
      <trkpt lat="43.39885" lon="1.34655">
        <ele>251</ele>
        <time>2019-12-17T21:07:35Z</time>
      </trkpt>
      <trkpt lat="43.39894" lon="1.3466">
        <ele>252.7</ele>
        <time>2019-12-17T21:07:43Z</time>
      </trkpt>
      <trkpt lat="43.39902" lon="1.34665">
        <ele>254.9</ele>
        <time>2019-12-17T21:07:50Z</time>
      </trkpt>
      <trkpt lat="43.39912" lon="1.34675">
        <ele>258</ele>
        <time>2019-12-17T21:08:01Z</time>
      </trkpt>
      <trkpt lat="43.39926" lon="1.34657">
        <ele>262</ele>
        <time>2019-12-17T21:08:16Z</time>
      </trkpt>
      <trkpt lat="43.39939" lon="1.34645">
        <ele>263.6</ele>
        <time>2019-12-17T21:08:29Z</time>
      </trkpt>
      <trkpt lat="43.39964" lon="1.34634">
        <ele>266</ele>
        <time>2019-12-17T21:08:51Z</time>
      </trkpt>
      <trkpt lat="43.39978" lon="1.3463">
        <ele>267.4</ele>
        <time>2019-12-17T21:09:03Z</time>
      </trkpt>
      <trkpt lat="43.39994" lon="1.34623">
        <ele>268.3</ele>
        <time>2019-12-17T21:09:17Z</time>
      </trkpt>
      <trkpt lat="43.39998" lon="1.34632">
        <ele>269.1</ele>
        <time>2019-12-17T21:09:24Z</time>
      </trkpt>
      <trkpt lat="43.39999" lon="1.34651">
        <ele>272.2</ele>
        <time>2019-12-17T21:09:35Z</time>
      </trkpt>
      <trkpt lat="43.40001" lon="1.34672">
        <ele>279</ele>
        <time>2019-12-17T21:09:48Z</time>
      </trkpt>
      <trkpt lat="43.39995" lon="1.34694">
        <ele>274.8</ele>
        <time>2019-12-17T21:10:02Z</time>
      </trkpt>
      <trkpt lat="43.39988" lon="1.347">
        <ele>274.4</ele>
        <time>2019-12-17T21:10:09Z</time>
      </trkpt>
      <trkpt lat="43.3998" lon="1.34708">
        <ele>274.1</ele>
        <time>2019-12-17T21:10:17Z</time>
      </trkpt>
      <trkpt lat="43.39977" lon="1.34716">
        <ele>274.2</ele>
        <time>2019-12-17T21:10:22Z</time>
      </trkpt>
      <trkpt lat="43.39979" lon="1.3474">
        <ele>276.2</ele>
        <time>2019-12-17T21:10:37Z</time>
      </trkpt>
      <trkpt lat="43.39971" lon="1.34771">
        <ele>276.3</ele>
        <time>2019-12-17T21:10:57Z</time>
      </trkpt>
      <trkpt lat="43.39972" lon="1.34784">
        <ele>276.1</ele>
        <time>2019-12-17T21:11:05Z</time>
      </trkpt>
      <trkpt lat="43.39971" lon="1.34797">
        <ele>275.9</ele>
        <time>2019-12-17T21:11:13Z</time>
      </trkpt>
      <trkpt lat="43.39977" lon="1.34808">
        <ele>276.5</ele>
        <time>2019-12-17T21:11:21Z</time>
      </trkpt>
      <trkpt lat="43.39986" lon="1.34806">
        <ele>277.3</ele>
        <time>2019-12-17T21:11:29Z</time>
      </trkpt>
      <trkpt lat="43.3999" lon="1.34818">
        <ele>278.4</ele>
        <time>2019-12-17T21:11:37Z</time>
      </trkpt>
      <trkpt lat="43.39989" lon="1.34832">
        <ele>279.4</ele>
        <time>2019-12-17T21:11:46Z</time>
      </trkpt>
      <trkpt lat="43.39988" lon="1.34845">
        <ele>277.3</ele>
        <time>2019-12-17T21:11:54Z</time>
      </trkpt>
      <trkpt lat="43.39987" lon="1.34859">
        <ele>275.7</ele>
        <time>2019-12-17T21:12:02Z</time>
      </trkpt>
      <trkpt lat="43.39977" lon="1.3488">
        <ele>274</ele>
        <time>2019-12-17T21:12:17Z</time>
      </trkpt>
      <trkpt lat="43.39977" lon="1.34933">
        <ele>272.1</ele>
        <time>2019-12-17T21:12:49Z</time>
      </trkpt>
      <trkpt lat="43.39981" lon="1.34953">
        <ele>271.6</ele>
        <time>2019-12-17T21:13:02Z</time>
      </trkpt>
      <trkpt lat="43.39988" lon="1.34963">
        <ele>272</ele>
        <time>2019-12-17T21:13:10Z</time>
      </trkpt>
      <trkpt lat="43.39993" lon="1.34996">
        <ele>274.9</ele>
        <time>2019-12-17T21:13:31Z</time>
      </trkpt>
      <trkpt lat="43.39997" lon="1.3501">
        <ele>274.1</ele>
        <time>2019-12-17T21:13:39Z</time>
      </trkpt>
      <trkpt lat="43.40002" lon="1.35032">
        <ele>280.6</ele>
        <time>2019-12-17T21:13:54Z</time>
      </trkpt>
      <trkpt lat="43.40013" lon="1.35052">
        <ele>281.1</ele>
        <time>2019-12-17T21:14:09Z</time>
      </trkpt>
      <trkpt lat="43.40027" lon="1.35078">
        <ele>281.6</ele>
        <time>2019-12-17T21:14:29Z</time>
      </trkpt>
      <trkpt lat="43.40032" lon="1.35088">
        <ele>281.3</ele>
        <time>2019-12-17T21:14:36Z</time>
      </trkpt>
      <trkpt lat="43.40041" lon="1.35096">
        <ele>282</ele>
        <time>2019-12-17T21:14:45Z</time>
      </trkpt>
      <trkpt lat="43.40047" lon="1.35105">
        <ele>282.4</ele>
        <time>2019-12-17T21:14:52Z</time>
      </trkpt>
      <trkpt lat="43.40057" lon="1.35109">
        <ele>283</ele>
        <time>2019-12-17T21:15:01Z</time>
      </trkpt>
      <trkpt lat="43.40066" lon="1.35112">
        <ele>283.5</ele>
        <time>2019-12-17T21:15:09Z</time>
      </trkpt>
      <trkpt lat="43.40075" lon="1.35115">
        <ele>283.9</ele>
        <time>2019-12-17T21:15:17Z</time>
      </trkpt>
      <trkpt lat="43.40086" lon="1.35118">
        <ele>285</ele>
        <time>2019-12-17T21:15:26Z</time>
      </trkpt>
      <trkpt lat="43.4009" lon="1.3513">
        <ele>284.4</ele>
        <time>2019-12-17T21:15:33Z</time>
      </trkpt>
      <trkpt lat="43.40097" lon="1.35137">
        <ele>284.1</ele>
        <time>2019-12-17T21:15:41Z</time>
      </trkpt>
      <trkpt lat="43.40104" lon="1.35146">
        <ele>283.9</ele>
        <time>2019-12-17T21:15:49Z</time>
      </trkpt>
      <trkpt lat="43.40113" lon="1.35151">
        <ele>283.5</ele>
        <time>2019-12-17T21:15:57Z</time>
      </trkpt>
      <trkpt lat="43.40121" lon="1.35157">
        <ele>283.1</ele>
        <time>2019-12-17T21:16:05Z</time>
      </trkpt>
      <trkpt lat="43.40131" lon="1.35154">
        <ele>282.5</ele>
        <time>2019-12-17T21:16:14Z</time>
      </trkpt>
      <trkpt lat="43.40141" lon="1.3515">
        <ele>282</ele>
        <time>2019-12-17T21:16:22Z</time>
      </trkpt>
      <trkpt lat="43.4015" lon="1.35143">
        <ele>281.8</ele>
        <time>2019-12-17T21:16:31Z</time>
      </trkpt>
      <trkpt lat="43.40153" lon="1.3513">
        <ele>282.1</ele>
        <time>2019-12-17T21:16:39Z</time>
      </trkpt>
      <trkpt lat="43.40161" lon="1.35123">
        <ele>281.9</ele>
        <time>2019-12-17T21:16:47Z</time>
      </trkpt>
      <trkpt lat="43.40169" lon="1.35116">
        <ele>274.7</ele>
        <time>2019-12-17T21:16:56Z</time>
      </trkpt>
      <trkpt lat="43.40179" lon="1.35117">
        <ele>274.2</ele>
        <time>2019-12-17T21:17:03Z</time>
      </trkpt>
      <trkpt lat="43.40188" lon="1.35114">
        <ele>273.6</ele>
        <time>2019-12-17T21:17:11Z</time>
      </trkpt>
      <trkpt lat="43.40195" lon="1.35106">
        <ele>273.2</ele>
        <time>2019-12-17T21:17:19Z</time>
      </trkpt>
      <trkpt lat="43.40195" lon="1.35093">
        <ele>273.7</ele>
        <time>2019-12-17T21:17:27Z</time>
      </trkpt>
      <trkpt lat="43.40194" lon="1.35079">
        <ele>276.2</ele>
        <time>2019-12-17T21:17:35Z</time>
      </trkpt>
      <trkpt lat="43.40199" lon="1.35067">
        <ele>275.8</ele>
        <time>2019-12-17T21:17:44Z</time>
      </trkpt>
      <trkpt lat="43.40205" lon="1.35056">
        <ele>275.5</ele>
        <time>2019-12-17T21:17:52Z</time>
      </trkpt>
      <trkpt lat="43.40209" lon="1.35045">
        <ele>275.6</ele>
        <time>2019-12-17T21:17:59Z</time>
      </trkpt>
      <trkpt lat="43.4021" lon="1.35033">
        <ele>276</ele>
        <time>2019-12-17T21:18:07Z</time>
      </trkpt>
      <trkpt lat="43.40213" lon="1.35021">
        <ele>276.2</ele>
        <time>2019-12-17T21:18:15Z</time>
      </trkpt>
      <trkpt lat="43.40217" lon="1.35009">
        <ele>276.4</ele>
        <time>2019-12-17T21:18:23Z</time>
      </trkpt>
      <trkpt lat="43.40227" lon="1.35004">
        <ele>276.1</ele>
        <time>2019-12-17T21:18:31Z</time>
      </trkpt>
      <trkpt lat="43.40234" lon="1.34995">
        <ele>278.8</ele>
        <time>2019-12-17T21:18:39Z</time>
      </trkpt>
      <trkpt lat="43.40242" lon="1.3499">
        <ele>278.2</ele>
        <time>2019-12-17T21:18:47Z</time>
      </trkpt>
      <trkpt lat="43.40248" lon="1.34981">
        <ele>279</ele>
        <time>2019-12-17T21:18:55Z</time>
      </trkpt>
      <trkpt lat="43.40257" lon="1.34977">
        <ele>278.2</ele>
        <time>2019-12-17T21:19:02Z</time>
      </trkpt>
      <trkpt lat="43.40265" lon="1.3497">
        <ele>278.7</ele>
        <time>2019-12-17T21:19:10Z</time>
      </trkpt>
      <trkpt lat="43.4027" lon="1.34958">
        <ele>279.3</ele>
        <time>2019-12-17T21:19:18Z</time>
      </trkpt>
      <trkpt lat="43.40278" lon="1.3495">
        <ele>279.7</ele>
        <time>2019-12-17T21:19:27Z</time>
      </trkpt>
      <trkpt lat="43.40286" lon="1.34942">
        <ele>279.9</ele>
        <time>2019-12-17T21:19:35Z</time>
      </trkpt>
      <trkpt lat="43.40294" lon="1.34938">
        <ele>280</ele>
        <time>2019-12-17T21:19:42Z</time>
      </trkpt>
      <trkpt lat="43.40304" lon="1.34935">
        <ele>280.1</ele>
        <time>2019-12-17T21:19:51Z</time>
      </trkpt>
      <trkpt lat="43.40314" lon="1.34937">
        <ele>280.1</ele>
        <time>2019-12-17T21:19:59Z</time>
      </trkpt>
      <trkpt lat="43.40324" lon="1.34937">
        <ele>280.3</ele>
        <time>2019-12-17T21:20:07Z</time>
      </trkpt>
      <trkpt lat="43.40329" lon="1.34926">
        <ele>281.1</ele>
        <time>2019-12-17T21:20:15Z</time>
      </trkpt>
      <trkpt lat="43.40331" lon="1.34914">
        <ele>282.2</ele>
        <time>2019-12-17T21:20:23Z</time>
      </trkpt>
      <trkpt lat="43.40337" lon="1.34904">
        <ele>280.7</ele>
        <time>2019-12-17T21:20:31Z</time>
      </trkpt>
      <trkpt lat="43.40344" lon="1.34896">
        <ele>280.1</ele>
        <time>2019-12-17T21:20:38Z</time>
      </trkpt>
      <trkpt lat="43.40352" lon="1.34889">
        <ele>279.6</ele>
        <time>2019-12-17T21:20:46Z</time>
      </trkpt>
      <trkpt lat="43.40357" lon="1.34878">
        <ele>279.4</ele>
        <time>2019-12-17T21:20:54Z</time>
      </trkpt>
      <trkpt lat="43.40361" lon="1.34863">
        <ele>279.4</ele>
        <time>2019-12-17T21:21:03Z</time>
      </trkpt>
      <trkpt lat="43.40371" lon="1.34842">
        <ele>279</ele>
        <time>2019-12-17T21:21:19Z</time>
      </trkpt>
      <trkpt lat="43.40371" lon="1.34829">
        <ele>280.5</ele>
        <time>2019-12-17T21:21:27Z</time>
      </trkpt>
      <trkpt lat="43.40374" lon="1.34817">
        <ele>280.4</ele>
        <time>2019-12-17T21:21:34Z</time>
      </trkpt>
      <trkpt lat="43.4038" lon="1.34807">
        <ele>280.1</ele>
        <time>2019-12-17T21:21:42Z</time>
      </trkpt>
      <trkpt lat="43.4038" lon="1.34794">
        <ele>280.4</ele>
        <time>2019-12-17T21:21:50Z</time>
      </trkpt>
      <trkpt lat="43.40383" lon="1.34782">
        <ele>280.6</ele>
        <time>2019-12-17T21:21:58Z</time>
      </trkpt>
      <trkpt lat="43.40381" lon="1.34764">
        <ele>280.9</ele>
        <time>2019-12-17T21:22:09Z</time>
      </trkpt>
      <trkpt lat="43.40382" lon="1.3475">
        <ele>282.9</ele>
        <time>2019-12-17T21:22:18Z</time>
      </trkpt>
      <trkpt lat="43.40388" lon="1.34734">
        <ele>282.7</ele>
        <time>2019-12-17T21:22:29Z</time>
      </trkpt>
      <trkpt lat="43.40403" lon="1.34713">
        <ele>282.9</ele>
        <time>2019-12-17T21:22:46Z</time>
      </trkpt>
      <trkpt lat="43.40412" lon="1.3471">
        <ele>282.9</ele>
        <time>2019-12-17T21:22:54Z</time>
      </trkpt>
      <trkpt lat="43.40426" lon="1.34691">
        <ele>278</ele>
        <time>2019-12-17T21:23:11Z</time>
      </trkpt>
      <trkpt lat="43.40436" lon="1.34666">
        <ele>281.9</ele>
        <time>2019-12-17T21:23:28Z</time>
      </trkpt>
      <trkpt lat="43.4044" lon="1.34643">
        <ele>281.6</ele>
        <time>2019-12-17T21:23:42Z</time>
      </trkpt>
      <trkpt lat="43.40437" lon="1.34631">
        <ele>281.9</ele>
        <time>2019-12-17T21:23:50Z</time>
      </trkpt>
      <trkpt lat="43.40435" lon="1.34619">
        <ele>282.5</ele>
        <time>2019-12-17T21:23:57Z</time>
      </trkpt>
      <trkpt lat="43.40439" lon="1.34607">
        <ele>282.9</ele>
        <time>2019-12-17T21:24:06Z</time>
      </trkpt>
      <trkpt lat="43.4044" lon="1.34593">
        <ele>283.7</ele>
        <time>2019-12-17T21:24:14Z</time>
      </trkpt>
      <trkpt lat="43.4044" lon="1.34581">
        <ele>284.5</ele>
        <time>2019-12-17T21:24:22Z</time>
      </trkpt>
      <trkpt lat="43.40436" lon="1.34559">
        <ele>283.9</ele>
        <time>2019-12-17T21:24:35Z</time>
      </trkpt>
      <trkpt lat="43.40435" lon="1.3454">
        <ele>283.2</ele>
        <time>2019-12-17T21:24:47Z</time>
      </trkpt>
      <trkpt lat="43.40433" lon="1.34525">
        <ele>283.2</ele>
        <time>2019-12-17T21:24:56Z</time>
      </trkpt>
      <trkpt lat="43.4043" lon="1.34512">
        <ele>283.5</ele>
        <time>2019-12-17T21:25:04Z</time>
      </trkpt>
      <trkpt lat="43.40422" lon="1.34492">
        <ele>281.8</ele>
        <time>2019-12-17T21:25:18Z</time>
      </trkpt>
      <trkpt lat="43.40416" lon="1.34478">
        <ele>283.2</ele>
        <time>2019-12-17T21:25:28Z</time>
      </trkpt>
      <trkpt lat="43.40413" lon="1.34465">
        <ele>282.1</ele>
        <time>2019-12-17T21:25:37Z</time>
      </trkpt>
      <trkpt lat="43.40411" lon="1.34452">
        <ele>280.9</ele>
        <time>2019-12-17T21:25:45Z</time>
      </trkpt>
      <trkpt lat="43.40404" lon="1.34411">
        <ele>275.6</ele>
        <time>2019-12-17T21:26:10Z</time>
      </trkpt>
      <trkpt lat="43.40404" lon="1.34388">
        <ele>276.2</ele>
        <time>2019-12-17T21:26:24Z</time>
      </trkpt>
      <trkpt lat="43.40408" lon="1.34361">
        <ele>275.5</ele>
        <time>2019-12-17T21:26:41Z</time>
      </trkpt>
      <trkpt lat="43.4041" lon="1.34356">
        <ele>275.2</ele>
        <time>2019-12-17T21:26:44Z</time>
      </trkpt>
      <trkpt lat="43.40415" lon="1.34339">
        <ele>273.1</ele>
        <time>2019-12-17T21:26:56Z</time>
      </trkpt>
      <trkpt lat="43.40424" lon="1.34335">
        <ele>270.9</ele>
        <time>2019-12-17T21:27:03Z</time>
      </trkpt>
      <trkpt lat="43.40434" lon="1.34338">
        <ele>269.7</ele>
        <time>2019-12-17T21:27:12Z</time>
      </trkpt>
      <trkpt lat="43.40443" lon="1.34334">
        <ele>268.9</ele>
        <time>2019-12-17T21:27:20Z</time>
      </trkpt>
      <trkpt lat="43.40452" lon="1.3433">
        <ele>267.1</ele>
        <time>2019-12-17T21:27:28Z</time>
      </trkpt>
      <trkpt lat="43.4046" lon="1.34322">
        <ele>266.3</ele>
        <time>2019-12-17T21:27:36Z</time>
      </trkpt>
      <trkpt lat="43.40468" lon="1.34316">
        <ele>265.6</ele>
        <time>2019-12-17T21:27:43Z</time>
      </trkpt>
      <trkpt lat="43.40476" lon="1.34308">
        <ele>265.1</ele>
        <time>2019-12-17T21:27:51Z</time>
      </trkpt>
      <trkpt lat="43.40483" lon="1.34299">
        <ele>264.8</ele>
        <time>2019-12-17T21:27:59Z</time>
      </trkpt>
      <trkpt lat="43.40492" lon="1.34297">
        <ele>264.3</ele>
        <time>2019-12-17T21:28:07Z</time>
      </trkpt>
      <trkpt lat="43.40503" lon="1.34299">
        <ele>256.3</ele>
        <time>2019-12-17T21:28:16Z</time>
      </trkpt>
      <trkpt lat="43.40506" lon="1.34311">
        <ele>256.9</ele>
        <time>2019-12-17T21:28:24Z</time>
      </trkpt>
      <trkpt lat="43.40513" lon="1.3432">
        <ele>257.2</ele>
        <time>2019-12-17T21:28:32Z</time>
      </trkpt>
      <trkpt lat="43.40524" lon="1.34316">
        <ele>255.8</ele>
        <time>2019-12-17T21:28:41Z</time>
      </trkpt>
      <trkpt lat="43.40565" lon="1.34295">
        <ele>252.2</ele>
        <time>2019-12-17T21:29:18Z</time>
      </trkpt>
      <trkpt lat="43.40572" lon="1.34293">
        <ele>251.8</ele>
        <time>2019-12-17T21:29:24Z</time>
      </trkpt>
      <trkpt lat="43.40578" lon="1.34289">
        <ele>251.4</ele>
        <time>2019-12-17T21:29:30Z</time>
      </trkpt>
      <trkpt lat="43.40582" lon="1.34288">
        <ele>251.3</ele>
        <time>2019-12-17T21:29:33Z</time>
      </trkpt>
      <trkpt lat="43.40585" lon="1.34293">
        <ele>250</ele>
        <time>2019-12-17T21:29:37Z</time>
      </trkpt>
      <trkpt lat="43.40587" lon="1.34286">
        <ele>249.9</ele>
        <time>2019-12-17T21:29:42Z</time>
      </trkpt>
      <trkpt lat="43.40596" lon="1.34289">
        <ele>250.2</ele>
        <time>2019-12-17T21:29:49Z</time>
      </trkpt>
      <trkpt lat="43.40604" lon="1.34297">
        <ele>250.6</ele>
        <time>2019-12-17T21:29:58Z</time>
      </trkpt>
      <trkpt lat="43.40612" lon="1.34306">
        <ele>250.8</ele>
        <time>2019-12-17T21:30:06Z</time>
      </trkpt>
      <trkpt lat="43.40621" lon="1.34313">
        <ele>251.1</ele>
        <time>2019-12-17T21:30:15Z</time>
      </trkpt>
      <trkpt lat="43.40628" lon="1.34322">
        <ele>251.3</ele>
        <time>2019-12-17T21:30:23Z</time>
      </trkpt>
      <trkpt lat="43.40637" lon="1.34326">
        <ele>251.5</ele>
        <time>2019-12-17T21:30:31Z</time>
      </trkpt>
      <trkpt lat="43.40646" lon="1.34327">
        <ele>251.8</ele>
        <time>2019-12-17T21:30:38Z</time>
      </trkpt>
      <trkpt lat="43.40655" lon="1.34327">
        <ele>251.9</ele>
        <time>2019-12-17T21:30:46Z</time>
      </trkpt>
      <trkpt lat="43.40683" lon="1.34345">
        <ele>253.1</ele>
        <time>2019-12-17T21:31:11Z</time>
      </trkpt>
      <trkpt lat="43.4072" lon="1.34357">
        <ele>255</ele>
        <time>2019-12-17T21:31:43Z</time>
      </trkpt>
      <trkpt lat="43.40767" lon="1.34344">
        <ele>261.6</ele>
        <time>2019-12-17T21:32:23Z</time>
      </trkpt>
      <trkpt lat="43.40772" lon="1.34362">
        <ele>261.4</ele>
        <time>2019-12-17T21:32:35Z</time>
      </trkpt>
      <trkpt lat="43.40776" lon="1.34393">
        <ele>260.1</ele>
        <time>2019-12-17T21:32:54Z</time>
      </trkpt>
      <trkpt lat="43.40783" lon="1.34427">
        <ele>256.3</ele>
        <time>2019-12-17T21:33:16Z</time>
      </trkpt>
      <trkpt lat="43.40785" lon="1.34452">
        <ele>256</ele>
        <time>2019-12-17T21:33:31Z</time>
      </trkpt>
      <trkpt lat="43.40786" lon="1.34466">
        <ele>255.5</ele>
        <time>2019-12-17T21:33:40Z</time>
      </trkpt>
      <trkpt lat="43.40787" lon="1.3448">
        <ele>255.1</ele>
        <time>2019-12-17T21:33:48Z</time>
      </trkpt>
      <trkpt lat="43.40792" lon="1.3451">
        <ele>250.7</ele>
        <time>2019-12-17T21:34:07Z</time>
      </trkpt>
      <trkpt lat="43.40797" lon="1.34542">
        <ele>249.6</ele>
        <time>2019-12-17T21:34:26Z</time>
      </trkpt>
      <trkpt lat="43.40839" lon="1.34627">
        <ele>252.1</ele>
        <time>2019-12-17T21:35:29Z</time>
      </trkpt>
      <trkpt lat="43.40845" lon="1.34665">
        <ele>249.3</ele>
        <time>2019-12-17T21:35:52Z</time>
      </trkpt>
      <trkpt lat="43.40855" lon="1.34698">
        <ele>251.9</ele>
        <time>2019-12-17T21:36:14Z</time>
      </trkpt>
      <trkpt lat="43.40858" lon="1.34712">
        <ele>252.3</ele>
        <time>2019-12-17T21:36:23Z</time>
      </trkpt>
      <trkpt lat="43.4086" lon="1.34724">
        <ele>252.5</ele>
        <time>2019-12-17T21:36:30Z</time>
      </trkpt>
      <trkpt lat="43.40862" lon="1.34736">
        <ele>252.5</ele>
        <time>2019-12-17T21:36:38Z</time>
      </trkpt>
      <trkpt lat="43.40865" lon="1.3475">
        <ele>252.8</ele>
        <time>2019-12-17T21:36:47Z</time>
      </trkpt>
      <trkpt lat="43.40869" lon="1.34761">
        <ele>253.2</ele>
        <time>2019-12-17T21:36:54Z</time>
      </trkpt>
      <trkpt lat="43.40871" lon="1.34774">
        <ele>253.4</ele>
        <time>2019-12-17T21:37:02Z</time>
      </trkpt>
      <trkpt lat="43.40874" lon="1.34786">
        <ele>253.5</ele>
        <time>2019-12-17T21:37:10Z</time>
      </trkpt>
      <trkpt lat="43.40877" lon="1.34798">
        <ele>253.6</ele>
        <time>2019-12-17T21:37:18Z</time>
      </trkpt>
      <trkpt lat="43.40879" lon="1.3481">
        <ele>253.7</ele>
        <time>2019-12-17T21:37:25Z</time>
      </trkpt>
      <trkpt lat="43.40881" lon="1.34823">
        <ele>253.9</ele>
        <time>2019-12-17T21:37:33Z</time>
      </trkpt>
      <trkpt lat="43.40884" lon="1.34835">
        <ele>252.4</ele>
        <time>2019-12-17T21:37:41Z</time>
      </trkpt>
      <trkpt lat="43.40886" lon="1.34848">
        <ele>252.5</ele>
        <time>2019-12-17T21:37:49Z</time>
      </trkpt>
      <trkpt lat="43.40889" lon="1.34861">
        <ele>252.3</ele>
        <time>2019-12-17T21:37:57Z</time>
      </trkpt>
      <trkpt lat="43.4089" lon="1.34873">
        <ele>252</ele>
        <time>2019-12-17T21:38:05Z</time>
      </trkpt>
      <trkpt lat="43.40893" lon="1.34887">
        <ele>252.2</ele>
        <time>2019-12-17T21:38:13Z</time>
      </trkpt>
      <trkpt lat="43.40894" lon="1.34929">
        <ele>250.6</ele>
        <time>2019-12-17T21:38:39Z</time>
      </trkpt>
      <trkpt lat="43.40912" lon="1.34982">
        <ele>250.8</ele>
        <time>2019-12-17T21:39:14Z</time>
      </trkpt>
      <trkpt lat="43.40925" lon="1.35027">
        <ele>255.2</ele>
        <time>2019-12-17T21:39:44Z</time>
      </trkpt>
      <trkpt lat="43.40929" lon="1.35043">
        <ele>254.3</ele>
        <time>2019-12-17T21:39:54Z</time>
      </trkpt>
      <trkpt lat="43.40936" lon="1.35053">
        <ele>253.7</ele>
        <time>2019-12-17T21:40:02Z</time>
      </trkpt>
      <trkpt lat="43.40965" lon="1.35123">
        <ele>247.3</ele>
        <time>2019-12-17T21:40:51Z</time>
      </trkpt>
      <trkpt lat="43.41008" lon="1.351">
        <ele>257.2</ele>
        <time>2019-12-17T21:41:30Z</time>
      </trkpt>
      <trkpt lat="43.4103" lon="1.35077">
        <ele>262</ele>
        <time>2019-12-17T21:41:53Z</time>
      </trkpt>
      <trkpt lat="43.41035" lon="1.3505">
        <ele>262.6</ele>
        <time>2019-12-17T21:42:10Z</time>
      </trkpt>
      <trkpt lat="43.41042" lon="1.35018">
        <ele>263.6</ele>
        <time>2019-12-17T21:42:30Z</time>
      </trkpt>
      <trkpt lat="43.41041" lon="1.35005">
        <ele>263.9</ele>
        <time>2019-12-17T21:42:38Z</time>
      </trkpt>
      <trkpt lat="43.41041" lon="1.34992">
        <ele>267.5</ele>
        <time>2019-12-17T21:42:46Z</time>
      </trkpt>
      <trkpt lat="43.4104" lon="1.34979">
        <ele>267.8</ele>
        <time>2019-12-17T21:42:54Z</time>
      </trkpt>
      <trkpt lat="43.41042" lon="1.34967">
        <ele>268</ele>
        <time>2019-12-17T21:43:02Z</time>
      </trkpt>
      <trkpt lat="43.41044" lon="1.34953">
        <ele>268.4</ele>
        <time>2019-12-17T21:43:10Z</time>
      </trkpt>
      <trkpt lat="43.41047" lon="1.34941">
        <ele>268.7</ele>
        <time>2019-12-17T21:43:18Z</time>
      </trkpt>
      <trkpt lat="43.4105" lon="1.34928">
        <ele>268.9</ele>
        <time>2019-12-17T21:43:26Z</time>
      </trkpt>
      <trkpt lat="43.41051" lon="1.34915">
        <ele>272.6</ele>
        <time>2019-12-17T21:43:34Z</time>
      </trkpt>
      <trkpt lat="43.41053" lon="1.34902">
        <ele>272.9</ele>
        <time>2019-12-17T21:43:42Z</time>
      </trkpt>
      <trkpt lat="43.41055" lon="1.34888">
        <ele>273.5</ele>
        <time>2019-12-17T21:43:51Z</time>
      </trkpt>
      <trkpt lat="43.4106" lon="1.34877">
        <ele>274.1</ele>
        <time>2019-12-17T21:43:59Z</time>
      </trkpt>
      <trkpt lat="43.41061" lon="1.34863">
        <ele>275</ele>
        <time>2019-12-17T21:44:08Z</time>
      </trkpt>
      <trkpt lat="43.4107" lon="1.34808">
        <ele>279.3</ele>
        <time>2019-12-17T21:44:41Z</time>
      </trkpt>
      <trkpt lat="43.41081" lon="1.34739">
        <ele>281.6</ele>
        <time>2019-12-17T21:45:25Z</time>
      </trkpt>
      <trkpt lat="43.41094" lon="1.34711">
        <ele>281.1</ele>
        <time>2019-12-17T21:45:45Z</time>
      </trkpt>
      <trkpt lat="43.41096" lon="1.34696">
        <ele>281.4</ele>
        <time>2019-12-17T21:45:54Z</time>
      </trkpt>
      <trkpt lat="43.411" lon="1.34683">
        <ele>281.8</ele>
        <time>2019-12-17T21:46:02Z</time>
      </trkpt>
      <trkpt lat="43.41106" lon="1.34673">
        <ele>281.8</ele>
        <time>2019-12-17T21:46:10Z</time>
      </trkpt>
      <trkpt lat="43.41111" lon="1.34662">
        <ele>283.1</ele>
        <time>2019-12-17T21:46:18Z</time>
      </trkpt>
      <trkpt lat="43.41113" lon="1.3465">
        <ele>283.1</ele>
        <time>2019-12-17T21:46:26Z</time>
      </trkpt>
      <trkpt lat="43.41117" lon="1.34637">
        <ele>283.1</ele>
        <time>2019-12-17T21:46:34Z</time>
      </trkpt>
      <trkpt lat="43.41122" lon="1.34625">
        <ele>283.1</ele>
        <time>2019-12-17T21:46:43Z</time>
      </trkpt>
      <trkpt lat="43.41126" lon="1.34613">
        <ele>283.1</ele>
        <time>2019-12-17T21:46:50Z</time>
      </trkpt>
      <trkpt lat="43.41131" lon="1.34603">
        <ele>283.1</ele>
        <time>2019-12-17T21:46:58Z</time>
      </trkpt>
      <trkpt lat="43.41136" lon="1.34592">
        <ele>283</ele>
        <time>2019-12-17T21:47:06Z</time>
      </trkpt>
      <trkpt lat="43.41141" lon="1.34581">
        <ele>283.3</ele>
        <time>2019-12-17T21:47:14Z</time>
      </trkpt>
      <trkpt lat="43.41143" lon="1.34567">
        <ele>283.3</ele>
        <time>2019-12-17T21:47:22Z</time>
      </trkpt>
      <trkpt lat="43.41146" lon="1.34555">
        <ele>283.2</ele>
        <time>2019-12-17T21:47:30Z</time>
      </trkpt>
      <trkpt lat="43.41149" lon="1.34543">
        <ele>283.2</ele>
        <time>2019-12-17T21:47:38Z</time>
      </trkpt>
      <trkpt lat="43.41154" lon="1.34532">
        <ele>282.9</ele>
        <time>2019-12-17T21:47:46Z</time>
      </trkpt>
      <trkpt lat="43.41157" lon="1.34518">
        <ele>282.5</ele>
        <time>2019-12-17T21:47:54Z</time>
      </trkpt>
      <trkpt lat="43.4116" lon="1.34505">
        <ele>281.8</ele>
        <time>2019-12-17T21:48:02Z</time>
      </trkpt>
      <trkpt lat="43.41165" lon="1.34493">
        <ele>282</ele>
        <time>2019-12-17T21:48:11Z</time>
      </trkpt>
      <trkpt lat="43.41169" lon="1.34482">
        <ele>280.8</ele>
        <time>2019-12-17T21:48:19Z</time>
      </trkpt>
      <trkpt lat="43.41175" lon="1.34472">
        <ele>280.8</ele>
        <time>2019-12-17T21:48:26Z</time>
      </trkpt>
      <trkpt lat="43.41178" lon="1.3446">
        <ele>280.9</ele>
        <time>2019-12-17T21:48:34Z</time>
      </trkpt>
      <trkpt lat="43.41184" lon="1.3445">
        <ele>281.1</ele>
        <time>2019-12-17T21:48:42Z</time>
      </trkpt>
      <trkpt lat="43.41191" lon="1.3444">
        <ele>281.2</ele>
        <time>2019-12-17T21:48:51Z</time>
      </trkpt>
      <trkpt lat="43.41196" lon="1.34429">
        <ele>281.2</ele>
        <time>2019-12-17T21:48:59Z</time>
      </trkpt>
      <trkpt lat="43.41202" lon="1.34417">
        <ele>283.5</ele>
        <time>2019-12-17T21:49:07Z</time>
      </trkpt>
      <trkpt lat="43.41204" lon="1.34404">
        <ele>283.6</ele>
        <time>2019-12-17T21:49:15Z</time>
      </trkpt>
      <trkpt lat="43.41207" lon="1.3439">
        <ele>283.8</ele>
        <time>2019-12-17T21:49:24Z</time>
      </trkpt>
      <trkpt lat="43.41208" lon="1.34377">
        <ele>284.2</ele>
        <time>2019-12-17T21:49:32Z</time>
      </trkpt>
      <trkpt lat="43.41211" lon="1.34365">
        <ele>284.5</ele>
        <time>2019-12-17T21:49:39Z</time>
      </trkpt>
      <trkpt lat="43.41227" lon="1.34338">
        <ele>285.1</ele>
        <time>2019-12-17T21:50:01Z</time>
      </trkpt>
      <trkpt lat="43.41244" lon="1.34359">
        <ele>284.5</ele>
        <time>2019-12-17T21:50:20Z</time>
      </trkpt>
      <trkpt lat="43.41303" lon="1.34426">
        <ele>280.1</ele>
        <time>2019-12-17T21:51:23Z</time>
      </trkpt>
      <trkpt lat="43.41311" lon="1.34432">
        <ele>280.2</ele>
        <time>2019-12-17T21:51:31Z</time>
      </trkpt>
      <trkpt lat="43.4132" lon="1.34438">
        <ele>280.3</ele>
        <time>2019-12-17T21:51:39Z</time>
      </trkpt>
      <trkpt lat="43.41327" lon="1.34446">
        <ele>280.4</ele>
        <time>2019-12-17T21:51:47Z</time>
      </trkpt>
      <trkpt lat="43.41334" lon="1.34454">
        <ele>280.1</ele>
        <time>2019-12-17T21:51:55Z</time>
      </trkpt>
      <trkpt lat="43.41341" lon="1.34464">
        <ele>280.1</ele>
        <time>2019-12-17T21:52:03Z</time>
      </trkpt>
      <trkpt lat="43.41349" lon="1.34469">
        <ele>280</ele>
        <time>2019-12-17T21:52:10Z</time>
      </trkpt>
      <trkpt lat="43.41357" lon="1.34478">
        <ele>280</ele>
        <time>2019-12-17T21:52:18Z</time>
      </trkpt>
      <trkpt lat="43.41363" lon="1.34487">
        <ele>279.9</ele>
        <time>2019-12-17T21:52:26Z</time>
      </trkpt>
      <trkpt lat="43.41382" lon="1.34511">
        <ele>280.1</ele>
        <time>2019-12-17T21:52:48Z</time>
      </trkpt>
      <trkpt lat="43.41403" lon="1.34521">
        <ele>279.7</ele>
        <time>2019-12-17T21:53:06Z</time>
      </trkpt>
      <trkpt lat="43.41412" lon="1.34522">
        <ele>279.5</ele>
        <time>2019-12-17T21:53:14Z</time>
      </trkpt>
      <trkpt lat="43.41421" lon="1.34528">
        <ele>277.6</ele>
        <time>2019-12-17T21:53:22Z</time>
      </trkpt>
      <trkpt lat="43.4143" lon="1.34535">
        <ele>277.6</ele>
        <time>2019-12-17T21:53:31Z</time>
      </trkpt>
      <trkpt lat="43.41439" lon="1.34537">
        <ele>277.4</ele>
        <time>2019-12-17T21:53:39Z</time>
      </trkpt>
      <trkpt lat="43.41449" lon="1.34539">
        <ele>277.2</ele>
        <time>2019-12-17T21:53:46Z</time>
      </trkpt>
      <trkpt lat="43.41458" lon="1.34542">
        <ele>277</ele>
        <time>2019-12-17T21:53:54Z</time>
      </trkpt>
      <trkpt lat="43.41467" lon="1.34547">
        <ele>276.9</ele>
        <time>2019-12-17T21:54:03Z</time>
      </trkpt>
      <trkpt lat="43.41477" lon="1.34549">
        <ele>276.7</ele>
        <time>2019-12-17T21:54:11Z</time>
      </trkpt>
      <trkpt lat="43.41487" lon="1.34553">
        <ele>276.6</ele>
        <time>2019-12-17T21:54:20Z</time>
      </trkpt>
      <trkpt lat="43.41496" lon="1.34557">
        <ele>276.6</ele>
        <time>2019-12-17T21:54:28Z</time>
      </trkpt>
      <trkpt lat="43.41506" lon="1.34561">
        <ele>274</ele>
        <time>2019-12-17T21:54:36Z</time>
      </trkpt>
      <trkpt lat="43.41515" lon="1.34565">
        <ele>273.9</ele>
        <time>2019-12-17T21:54:44Z</time>
      </trkpt>
      <trkpt lat="43.41525" lon="1.34569">
        <ele>273.6</ele>
        <time>2019-12-17T21:54:52Z</time>
      </trkpt>
      <trkpt lat="43.41533" lon="1.34573">
        <ele>273.2</ele>
        <time>2019-12-17T21:55:00Z</time>
      </trkpt>
      <trkpt lat="43.41542" lon="1.34575">
        <ele>272.8</ele>
        <time>2019-12-17T21:55:08Z</time>
      </trkpt>
      <trkpt lat="43.41552" lon="1.34577">
        <ele>272.5</ele>
        <time>2019-12-17T21:55:16Z</time>
      </trkpt>
      <trkpt lat="43.41561" lon="1.34578">
        <ele>272.3</ele>
        <time>2019-12-17T21:55:23Z</time>
      </trkpt>
      <trkpt lat="43.41585" lon="1.34591">
        <ele>270.9</ele>
        <time>2019-12-17T21:55:45Z</time>
      </trkpt>
      <trkpt lat="43.41603" lon="1.34613">
        <ele>268.8</ele>
        <time>2019-12-17T21:56:05Z</time>
      </trkpt>
      <trkpt lat="43.41609" lon="1.34622">
        <ele>268.4</ele>
        <time>2019-12-17T21:56:13Z</time>
      </trkpt>
      <trkpt lat="43.41614" lon="1.34632">
        <ele>268.2</ele>
        <time>2019-12-17T21:56:20Z</time>
      </trkpt>
      <trkpt lat="43.41636" lon="1.34661">
        <ele>266.4</ele>
        <time>2019-12-17T21:56:46Z</time>
      </trkpt>
      <trkpt lat="43.41674" lon="1.34716">
        <ele>258.9</ele>
        <time>2019-12-17T21:57:31Z</time>
      </trkpt>
      <trkpt lat="43.41683" lon="1.3472">
        <ele>258.7</ele>
        <time>2019-12-17T21:57:39Z</time>
      </trkpt>
      <trkpt lat="43.41686" lon="1.34733">
        <ele>258.6</ele>
        <time>2019-12-17T21:57:48Z</time>
      </trkpt>
      <trkpt lat="43.41691" lon="1.34743">
        <ele>258.4</ele>
        <time>2019-12-17T21:57:55Z</time>
      </trkpt>
      <trkpt lat="43.41696" lon="1.34755">
        <ele>254.3</ele>
        <time>2019-12-17T21:58:03Z</time>
      </trkpt>
      <trkpt lat="43.41701" lon="1.34765">
        <ele>253.4</ele>
        <time>2019-12-17T21:58:11Z</time>
      </trkpt>
      <trkpt lat="43.41706" lon="1.34776">
        <ele>252.5</ele>
        <time>2019-12-17T21:58:19Z</time>
      </trkpt>
      <trkpt lat="43.41713" lon="1.34785">
        <ele>251.7</ele>
        <time>2019-12-17T21:58:27Z</time>
      </trkpt>
      <trkpt lat="43.41719" lon="1.34796">
        <ele>250.9</ele>
        <time>2019-12-17T21:58:35Z</time>
      </trkpt>
      <trkpt lat="43.41726" lon="1.34805">
        <ele>250</ele>
        <time>2019-12-17T21:58:43Z</time>
      </trkpt>
      <trkpt lat="43.41733" lon="1.34813">
        <ele>248.9</ele>
        <time>2019-12-17T21:58:51Z</time>
      </trkpt>
      <trkpt lat="43.41741" lon="1.34822">
        <ele>247.3</ele>
        <time>2019-12-17T21:58:59Z</time>
      </trkpt>
      <trkpt lat="43.41747" lon="1.34832">
        <ele>244.9</ele>
        <time>2019-12-17T21:59:07Z</time>
      </trkpt>
      <trkpt lat="43.41754" lon="1.34844">
        <ele>240.9</ele>
        <time>2019-12-17T21:59:16Z</time>
      </trkpt>
      <trkpt lat="43.4176" lon="1.34853">
        <ele>238.8</ele>
        <time>2019-12-17T21:59:24Z</time>
      </trkpt>
      <trkpt lat="43.41766" lon="1.34864">
        <ele>237.3</ele>
        <time>2019-12-17T21:59:32Z</time>
      </trkpt>
      <trkpt lat="43.41772" lon="1.34875">
        <ele>236</ele>
        <time>2019-12-17T21:59:41Z</time>
      </trkpt>
      <trkpt lat="43.41777" lon="1.34886">
        <ele>235.2</ele>
        <time>2019-12-17T21:59:48Z</time>
      </trkpt>
      <trkpt lat="43.41782" lon="1.34897">
        <ele>234.4</ele>
        <time>2019-12-17T21:59:56Z</time>
      </trkpt>
      <trkpt lat="43.41787" lon="1.3491">
        <ele>233.9</ele>
        <time>2019-12-17T22:00:05Z</time>
      </trkpt>
      <trkpt lat="43.41793" lon="1.34922">
        <ele>227.7</ele>
        <time>2019-12-17T22:00:14Z</time>
      </trkpt>
      <trkpt lat="43.41799" lon="1.34933">
        <ele>227.3</ele>
        <time>2019-12-17T22:00:22Z</time>
      </trkpt>
      <trkpt lat="43.41805" lon="1.34943">
        <ele>226.9</ele>
        <time>2019-12-17T22:00:30Z</time>
      </trkpt>
      <trkpt lat="43.41814" lon="1.34943">
        <ele>226.8</ele>
        <time>2019-12-17T22:00:38Z</time>
      </trkpt>
      <trkpt lat="43.41822" lon="1.3495">
        <ele>226.4</ele>
        <time>2019-12-17T22:00:46Z</time>
      </trkpt>
      <trkpt lat="43.41827" lon="1.34962">
        <ele>225.6</ele>
        <time>2019-12-17T22:00:54Z</time>
      </trkpt>
      <trkpt lat="43.41832" lon="1.34973">
        <ele>224.6</ele>
        <time>2019-12-17T22:01:02Z</time>
      </trkpt>
      <trkpt lat="43.41832" lon="1.34987">
        <ele>223.1</ele>
        <time>2019-12-17T22:01:10Z</time>
      </trkpt>
      <trkpt lat="43.41835" lon="1.34999">
        <ele>221</ele>
        <time>2019-12-17T22:01:18Z</time>
      </trkpt>
      <trkpt lat="43.41834" lon="1.35014">
        <ele>218.9</ele>
        <time>2019-12-17T22:01:27Z</time>
      </trkpt>
      <trkpt lat="43.41834" lon="1.35026">
        <ele>217.8</ele>
        <time>2019-12-17T22:01:35Z</time>
      </trkpt>
      <trkpt lat="43.41836" lon="1.35038">
        <ele>217.1</ele>
        <time>2019-12-17T22:01:42Z</time>
      </trkpt>
      <trkpt lat="43.41839" lon="1.35052">
        <ele>216.6</ele>
        <time>2019-12-17T22:01:50Z</time>
      </trkpt>
      <trkpt lat="43.41838" lon="1.35065">
        <ele>216.5</ele>
        <time>2019-12-17T22:01:59Z</time>
      </trkpt>
      <trkpt lat="43.41838" lon="1.35079">
        <ele>216.7</ele>
        <time>2019-12-17T22:02:07Z</time>
      </trkpt>
      <trkpt lat="43.41837" lon="1.35092">
        <ele>215.6</ele>
        <time>2019-12-17T22:02:15Z</time>
      </trkpt>
      <trkpt lat="43.41836" lon="1.35106">
        <ele>214.6</ele>
        <time>2019-12-17T22:02:23Z</time>
      </trkpt>
      <trkpt lat="43.4183" lon="1.35117">
        <ele>217.5</ele>
        <time>2019-12-17T22:02:32Z</time>
      </trkpt>
      <trkpt lat="43.41824" lon="1.35128">
        <ele>217.5</ele>
        <time>2019-12-17T22:02:40Z</time>
      </trkpt>
      <trkpt lat="43.41821" lon="1.35141">
        <ele>217.3</ele>
        <time>2019-12-17T22:02:48Z</time>
      </trkpt>
      <trkpt lat="43.41822" lon="1.35153">
        <ele>217</ele>
        <time>2019-12-17T22:02:56Z</time>
      </trkpt>
      <trkpt lat="43.41821" lon="1.35167">
        <ele>216.7</ele>
        <time>2019-12-17T22:03:04Z</time>
      </trkpt>
      <trkpt lat="43.41822" lon="1.35181">
        <ele>215.5</ele>
        <time>2019-12-17T22:03:13Z</time>
      </trkpt>
      <trkpt lat="43.41828" lon="1.3519">
        <ele>215.3</ele>
        <time>2019-12-17T22:03:20Z</time>
      </trkpt>
      <trkpt lat="43.41835" lon="1.35199">
        <ele>212</ele>
        <time>2019-12-17T22:03:28Z</time>
      </trkpt>
      <trkpt lat="43.41842" lon="1.35209">
        <ele>211.3</ele>
        <time>2019-12-17T22:03:37Z</time>
      </trkpt>
      <trkpt lat="43.41848" lon="1.35219">
        <ele>210.9</ele>
        <time>2019-12-17T22:03:44Z</time>
      </trkpt>
      <trkpt lat="43.41855" lon="1.35226">
        <ele>210.6</ele>
        <time>2019-12-17T22:03:52Z</time>
      </trkpt>
      <trkpt lat="43.41863" lon="1.35234">
        <ele>210.3</ele>
        <time>2019-12-17T22:04:00Z</time>
      </trkpt>
      <trkpt lat="43.4187" lon="1.35242">
        <ele>210</ele>
        <time>2019-12-17T22:04:08Z</time>
      </trkpt>
      <trkpt lat="43.41876" lon="1.35251">
        <ele>209</ele>
        <time>2019-12-17T22:04:15Z</time>
      </trkpt>
      <trkpt lat="43.41881" lon="1.35263">
        <ele>208.8</ele>
        <time>2019-12-17T22:04:24Z</time>
      </trkpt>
      <trkpt lat="43.4189" lon="1.3527">
        <ele>208.6</ele>
        <time>2019-12-17T22:04:32Z</time>
      </trkpt>
      <trkpt lat="43.41898" lon="1.35275">
        <ele>208.5</ele>
        <time>2019-12-17T22:04:40Z</time>
      </trkpt>
      <trkpt lat="43.41906" lon="1.35282">
        <ele>208.5</ele>
        <time>2019-12-17T22:04:48Z</time>
      </trkpt>
      <trkpt lat="43.41915" lon="1.35284">
        <ele>208.5</ele>
        <time>2019-12-17T22:04:55Z</time>
      </trkpt>
      <trkpt lat="43.41924" lon="1.35288">
        <ele>206.6</ele>
        <time>2019-12-17T22:05:03Z</time>
      </trkpt>
      <trkpt lat="43.41933" lon="1.35295">
        <ele>206.6</ele>
        <time>2019-12-17T22:05:11Z</time>
      </trkpt>
      <trkpt lat="43.4194" lon="1.35303">
        <ele>206.6</ele>
        <time>2019-12-17T22:05:19Z</time>
      </trkpt>
      <trkpt lat="43.4195" lon="1.35304">
        <ele>206.3</ele>
        <time>2019-12-17T22:05:27Z</time>
      </trkpt>
      <trkpt lat="43.41959" lon="1.35309">
        <ele>206.1</ele>
        <time>2019-12-17T22:05:35Z</time>
      </trkpt>
      <trkpt lat="43.41968" lon="1.35312">
        <ele>205.8</ele>
        <time>2019-12-17T22:05:43Z</time>
      </trkpt>
      <trkpt lat="43.41976" lon="1.35319">
        <ele>205.5</ele>
        <time>2019-12-17T22:05:51Z</time>
      </trkpt>
      <trkpt lat="43.41984" lon="1.35324">
        <ele>205.1</ele>
        <time>2019-12-17T22:05:59Z</time>
      </trkpt>
      <trkpt lat="43.41993" lon="1.35329">
        <ele>204.6</ele>
        <time>2019-12-17T22:06:07Z</time>
      </trkpt>
      <trkpt lat="43.42002" lon="1.35336">
        <ele>204.7</ele>
        <time>2019-12-17T22:06:15Z</time>
      </trkpt>
      <trkpt lat="43.42011" lon="1.3534">
        <ele>206.3</ele>
        <time>2019-12-17T22:06:24Z</time>
      </trkpt>
      <trkpt lat="43.42021" lon="1.35347">
        <ele>207.5</ele>
        <time>2019-12-17T22:06:32Z</time>
      </trkpt>
      <trkpt lat="43.42029" lon="1.35354">
        <ele>208.3</ele>
        <time>2019-12-17T22:06:40Z</time>
      </trkpt>
      <trkpt lat="43.42038" lon="1.3536">
        <ele>209</ele>
        <time>2019-12-17T22:06:48Z</time>
      </trkpt>
      <trkpt lat="43.42047" lon="1.35365">
        <ele>209.5</ele>
        <time>2019-12-17T22:06:57Z</time>
      </trkpt>
      <trkpt lat="43.42056" lon="1.35371">
        <ele>210</ele>
        <time>2019-12-17T22:07:05Z</time>
      </trkpt>
      <trkpt lat="43.42063" lon="1.35379">
        <ele>210.5</ele>
        <time>2019-12-17T22:07:13Z</time>
      </trkpt>
      <trkpt lat="43.42072" lon="1.35386">
        <ele>211.1</ele>
        <time>2019-12-17T22:07:22Z</time>
      </trkpt>
      <trkpt lat="43.4208" lon="1.35392">
        <ele>211.7</ele>
        <time>2019-12-17T22:07:29Z</time>
      </trkpt>
      <trkpt lat="43.42087" lon="1.354">
        <ele>214.8</ele>
        <time>2019-12-17T22:07:37Z</time>
      </trkpt>
      <trkpt lat="43.42095" lon="1.35408">
        <ele>214.9</ele>
        <time>2019-12-17T22:07:45Z</time>
      </trkpt>
      <trkpt lat="43.42102" lon="1.35416">
        <ele>215</ele>
        <time>2019-12-17T22:07:53Z</time>
      </trkpt>
      <trkpt lat="43.42109" lon="1.35423">
        <ele>216.1</ele>
        <time>2019-12-17T22:08:00Z</time>
      </trkpt>
      <trkpt lat="43.42117" lon="1.35431">
        <ele>216.3</ele>
        <time>2019-12-17T22:08:08Z</time>
      </trkpt>
      <trkpt lat="43.42127" lon="1.35429">
        <ele>216.5</ele>
        <time>2019-12-17T22:08:16Z</time>
      </trkpt>
      <trkpt lat="43.42134" lon="1.3542">
        <ele>215</ele>
        <time>2019-12-17T22:08:25Z</time>
      </trkpt>
    </trkseg>
  </trk>
</gpx>